<?xml version="1.0" encoding="UTF-8" standalone="no" ?>
<gpx xmlns="http://www.topografix.com/GPX/1/1" xmlns:xsi="http://www.w3.org/2001/XMLSchema-instance" xsi:schemaLocation="http://www.topografix.com/GPX/1/1 http://www.topografix.com/GPX/1/1/gpx.xsd" version="1.1" creator="VisuGPX - https://www.visugpx.com">
  <metadata>
    <name>26-CD-Vercors</name>
    <desc><![CDATA[26-CD-Vercors : canyon des Gueulards]]></desc>
  </metadata>
  <trk>
    <name><![CDATA[2015-06-28-1-gueulards_corr]]></name>
    <trkseg>
      <trkpt lat="44.83837" lon="5.18789">
        <ele>628</ele>
        <time>2015-06-28T07:18:30Z</time>
      </trkpt>
      <trkpt lat="44.83837" lon="5.18776">
        <ele>628</ele>
        <time>2015-06-28T07:18:49Z</time>
      </trkpt>
      <trkpt lat="44.83832" lon="5.18769">
        <ele>629</ele>
        <time>2015-06-28T07:18:51Z</time>
      </trkpt>
      <trkpt lat="44.83844" lon="5.18816">
        <ele>632</ele>
        <time>2015-06-28T07:21:48Z</time>
      </trkpt>
      <trkpt lat="44.8385" lon="5.18835">
        <ele>633</ele>
        <time>2015-06-28T07:22:00Z</time>
      </trkpt>
      <trkpt lat="44.83854" lon="5.18853">
        <ele>637</ele>
        <time>2015-06-28T07:22:52Z</time>
      </trkpt>
      <trkpt lat="44.83863" lon="5.1887">
        <ele>637</ele>
        <time>2015-06-28T07:23:00Z</time>
      </trkpt>
      <trkpt lat="44.83872" lon="5.1889">
        <ele>639</ele>
        <time>2015-06-28T07:23:16Z</time>
      </trkpt>
      <trkpt lat="44.83884" lon="5.18895">
        <ele>640</ele>
        <time>2015-06-28T07:23:27Z</time>
      </trkpt>
      <trkpt lat="44.83909" lon="5.18892">
        <ele>640.5</ele>
        <time>2015-06-28T07:23:36Z</time>
      </trkpt>
      <trkpt lat="44.83934" lon="5.18889">
        <ele>640</ele>
        <time>2015-06-28T07:23:53Z</time>
      </trkpt>
      <trkpt lat="44.83951" lon="5.1889">
        <ele>640</ele>
        <time>2015-06-28T07:24:01Z</time>
      </trkpt>
      <trkpt lat="44.83973" lon="5.18905">
        <ele>641</ele>
        <time>2015-06-28T07:24:09Z</time>
      </trkpt>
      <trkpt lat="44.8399" lon="5.18921">
        <ele>641</ele>
        <time>2015-06-28T07:24:17Z</time>
      </trkpt>
      <trkpt lat="44.84002" lon="5.18934">
        <ele>641</ele>
        <time>2015-06-28T07:24:25Z</time>
      </trkpt>
      <trkpt lat="44.84018" lon="5.18942">
        <ele>640</ele>
        <time>2015-06-28T07:24:42Z</time>
      </trkpt>
      <trkpt lat="44.84039" lon="5.18944">
        <ele>643</ele>
        <time>2015-06-28T07:25:13Z</time>
      </trkpt>
      <trkpt lat="44.84059" lon="5.18937">
        <ele>646</ele>
        <time>2015-06-28T07:25:39Z</time>
      </trkpt>
      <trkpt lat="44.8407" lon="5.18929">
        <ele>646</ele>
        <time>2015-06-28T07:25:49Z</time>
      </trkpt>
      <trkpt lat="44.84088" lon="5.1892">
        <ele>647</ele>
        <time>2015-06-28T07:25:57Z</time>
      </trkpt>
      <trkpt lat="44.84097" lon="5.18915">
        <ele>650</ele>
        <time>2015-06-28T07:26:28Z</time>
      </trkpt>
      <trkpt lat="44.84112" lon="5.1891">
        <ele>653</ele>
        <time>2015-06-28T07:26:49Z</time>
      </trkpt>
      <trkpt lat="44.84123" lon="5.18903">
        <ele>656</ele>
        <time>2015-06-28T07:27:06Z</time>
      </trkpt>
      <trkpt lat="44.84142" lon="5.18893">
        <ele>657.1</ele>
        <time>2015-06-28T07:27:10Z</time>
      </trkpt>
      <trkpt lat="44.84144" lon="5.18878">
        <ele>661</ele>
        <time>2015-06-28T07:27:38Z</time>
      </trkpt>
      <trkpt lat="44.84153" lon="5.18869">
        <ele>663</ele>
        <time>2015-06-28T07:28:02Z</time>
      </trkpt>
      <trkpt lat="44.84164" lon="5.18866">
        <ele>668</ele>
        <time>2015-06-28T07:28:26Z</time>
      </trkpt>
      <trkpt lat="44.84168" lon="5.18856">
        <ele>669</ele>
        <time>2015-06-28T07:28:30Z</time>
      </trkpt>
      <trkpt lat="44.84167" lon="5.18852">
        <ele>669</ele>
        <time>2015-06-28T07:29:24Z</time>
      </trkpt>
      <trkpt lat="44.84179" lon="5.18848">
        <ele>670</ele>
        <time>2015-06-28T07:29:44Z</time>
      </trkpt>
      <trkpt lat="44.84191" lon="5.18837">
        <ele>671.2</ele>
        <time>2015-06-28T07:29:46Z</time>
      </trkpt>
      <trkpt lat="44.8418" lon="5.18827">
        <ele>677</ele>
        <time>2015-06-28T07:30:21Z</time>
      </trkpt>
      <trkpt lat="44.8418" lon="5.18813">
        <ele>679</ele>
        <time>2015-06-28T07:30:34Z</time>
      </trkpt>
      <trkpt lat="44.84212" lon="5.18813">
        <ele>680</ele>
        <time>2015-06-28T07:30:42Z</time>
      </trkpt>
      <trkpt lat="44.84209" lon="5.18795">
        <ele>686</ele>
        <time>2015-06-28T07:31:10Z</time>
      </trkpt>
      <trkpt lat="44.84235" lon="5.18802">
        <ele>687.2</ele>
        <time>2015-06-28T07:31:12Z</time>
      </trkpt>
      <trkpt lat="44.84239" lon="5.18814">
        <ele>692</ele>
        <time>2015-06-28T07:31:57Z</time>
      </trkpt>
      <trkpt lat="44.84238" lon="5.1882">
        <ele>695.4</ele>
        <time>2015-06-28T07:32:19Z</time>
      </trkpt>
      <trkpt lat="44.84235" lon="5.18827">
        <ele>695.9</ele>
        <time>2015-06-28T07:32:48Z</time>
      </trkpt>
      <trkpt lat="44.84236" lon="5.18845">
        <ele>696.7</ele>
        <time>2015-06-28T07:32:51Z</time>
      </trkpt>
      <trkpt lat="44.84242" lon="5.18855">
        <ele>696.8</ele>
        <time>2015-06-28T07:33:23Z</time>
      </trkpt>
      <trkpt lat="44.84249" lon="5.18852">
        <ele>700</ele>
        <time>2015-06-28T07:34:15Z</time>
      </trkpt>
      <trkpt lat="44.84259" lon="5.18851">
        <ele>701</ele>
        <time>2015-06-28T07:34:26Z</time>
      </trkpt>
      <trkpt lat="44.84267" lon="5.18849">
        <ele>701.7</ele>
        <time>2015-06-28T07:34:29Z</time>
      </trkpt>
      <trkpt lat="44.84283" lon="5.18844">
        <ele>702</ele>
        <time>2015-06-28T07:34:44Z</time>
      </trkpt>
      <trkpt lat="44.84301" lon="5.18838">
        <ele>703.8</ele>
        <time>2015-06-28T07:34:55Z</time>
      </trkpt>
      <trkpt lat="44.84315" lon="5.18834">
        <ele>706</ele>
        <time>2015-06-28T07:35:33Z</time>
      </trkpt>
      <trkpt lat="44.84348" lon="5.18819">
        <ele>712</ele>
        <time>2015-06-28T07:36:10Z</time>
      </trkpt>
      <trkpt lat="44.84383" lon="5.18799">
        <ele>714.3</ele>
        <time>2015-06-28T07:37:09Z</time>
      </trkpt>
      <trkpt lat="44.84419" lon="5.18788">
        <ele>715.8</ele>
        <time>2015-06-28T07:37:40Z</time>
      </trkpt>
      <trkpt lat="44.84459" lon="5.18792">
        <ele>719.4</ele>
        <time>2015-06-28T07:38:24Z</time>
      </trkpt>
      <trkpt lat="44.84485" lon="5.1881">
        <ele>723.2</ele>
        <time>2015-06-28T07:38:51Z</time>
      </trkpt>
      <trkpt lat="44.84514" lon="5.18833">
        <ele>721.6</ele>
        <time>2015-06-28T07:39:24Z</time>
      </trkpt>
      <trkpt lat="44.84554" lon="5.18835">
        <ele>715.4</ele>
        <time>2015-06-28T07:39:59Z</time>
      </trkpt>
      <trkpt lat="44.84577" lon="5.1884">
        <ele>713.5</ele>
        <time>2015-06-28T07:40:25Z</time>
      </trkpt>
      <trkpt lat="44.8461" lon="5.18857">
        <ele>712.8</ele>
        <time>2015-06-28T07:40:56Z</time>
      </trkpt>
      <trkpt lat="44.8463" lon="5.18865">
        <ele>706.2</ele>
        <time>2015-06-28T07:41:49Z</time>
      </trkpt>
      <trkpt lat="44.84653" lon="5.1888">
        <ele>702.9</ele>
        <time>2015-06-28T07:42:22Z</time>
      </trkpt>
      <trkpt lat="44.84687" lon="5.18884">
        <ele>698.8</ele>
        <time>2015-06-28T07:42:50Z</time>
      </trkpt>
      <trkpt lat="44.84693" lon="5.18895">
        <ele>697.7</ele>
        <time>2015-06-28T07:43:06Z</time>
      </trkpt>
      <trkpt lat="44.847" lon="5.18899">
        <ele>697.8</ele>
        <time>2015-06-28T07:43:16Z</time>
      </trkpt>
      <trkpt lat="44.84708" lon="5.18904">
        <ele>697</ele>
        <time>2015-06-28T07:43:25Z</time>
      </trkpt>
      <trkpt lat="44.84711" lon="5.18914">
        <ele>697.4</ele>
        <time>2015-06-28T07:43:36Z</time>
      </trkpt>
      <trkpt lat="44.84712" lon="5.18916">
        <ele>696.7</ele>
        <time>2015-06-28T07:43:37Z</time>
      </trkpt>
      <trkpt lat="44.84718" lon="5.18935">
        <ele>693.8</ele>
        <time>2015-06-28T07:43:48Z</time>
      </trkpt>
      <trkpt lat="44.8472" lon="5.18948">
        <ele>691.9</ele>
        <time>2015-06-28T07:43:59Z</time>
      </trkpt>
      <trkpt lat="44.84719" lon="5.18959">
        <ele>690.2</ele>
        <time>2015-06-28T07:44:06Z</time>
      </trkpt>
      <trkpt lat="44.84718" lon="5.1897">
        <ele>689.9</ele>
        <time>2015-06-28T07:44:17Z</time>
      </trkpt>
      <trkpt lat="44.84716" lon="5.1898">
        <ele>689.5</ele>
        <time>2015-06-28T07:44:28Z</time>
      </trkpt>
      <trkpt lat="44.84716" lon="5.1899">
        <ele>689</ele>
        <time>2015-06-28T07:44:34Z</time>
      </trkpt>
      <trkpt lat="44.84711" lon="5.19">
        <ele>688.7</ele>
        <time>2015-06-28T07:44:41Z</time>
      </trkpt>
      <trkpt lat="44.84708" lon="5.18997">
        <ele>688.7</ele>
        <time>2015-06-28T07:44:42Z</time>
      </trkpt>
      <trkpt lat="44.84713" lon="5.19011">
        <ele>687.7</ele>
        <time>2015-06-28T07:45:00Z</time>
      </trkpt>
      <trkpt lat="44.84712" lon="5.1902">
        <ele>686.4</ele>
        <time>2015-06-28T07:45:17Z</time>
      </trkpt>
      <trkpt lat="44.84712" lon="5.1903">
        <ele>686</ele>
        <time>2015-06-28T07:45:25Z</time>
      </trkpt>
      <trkpt lat="44.84718" lon="5.19044">
        <ele>685.8</ele>
        <time>2015-06-28T07:45:29Z</time>
      </trkpt>
      <trkpt lat="44.84724" lon="5.19058">
        <ele>685</ele>
        <time>2015-06-28T07:45:38Z</time>
      </trkpt>
      <trkpt lat="44.84733" lon="5.19067">
        <ele>685.3</ele>
        <time>2015-06-28T07:45:45Z</time>
      </trkpt>
      <trkpt lat="44.8474" lon="5.19076">
        <ele>685.2</ele>
        <time>2015-06-28T07:46:08Z</time>
      </trkpt>
      <trkpt lat="44.84756" lon="5.19077">
        <ele>686.9</ele>
        <time>2015-06-28T07:46:50Z</time>
      </trkpt>
      <trkpt lat="44.84757" lon="5.19071">
        <ele>687</ele>
        <time>2015-06-28T07:46:51Z</time>
      </trkpt>
      <trkpt lat="44.8477" lon="5.19087">
        <ele>688.8</ele>
        <time>2015-06-28T07:47:13Z</time>
      </trkpt>
      <trkpt lat="44.84776" lon="5.19097">
        <ele>690</ele>
        <time>2015-06-28T07:47:24Z</time>
      </trkpt>
      <trkpt lat="44.84783" lon="5.19103">
        <ele>691.5</ele>
        <time>2015-06-28T07:47:35Z</time>
      </trkpt>
      <trkpt lat="44.8479" lon="5.19109">
        <ele>692.5</ele>
        <time>2015-06-28T07:47:48Z</time>
      </trkpt>
      <trkpt lat="44.84796" lon="5.19117">
        <ele>694.3</ele>
        <time>2015-06-28T07:48:05Z</time>
      </trkpt>
      <trkpt lat="44.84797" lon="5.19118">
        <ele>694.4</ele>
        <time>2015-06-28T07:48:06Z</time>
      </trkpt>
      <trkpt lat="44.84814" lon="5.19119">
        <ele>695.8</ele>
        <time>2015-06-28T07:48:26Z</time>
      </trkpt>
      <trkpt lat="44.84825" lon="5.19131">
        <ele>696.5</ele>
        <time>2015-06-28T07:48:38Z</time>
      </trkpt>
      <trkpt lat="44.8483" lon="5.19141">
        <ele>698</ele>
        <time>2015-06-28T07:48:52Z</time>
      </trkpt>
      <trkpt lat="44.84836" lon="5.19155">
        <ele>699.1</ele>
        <time>2015-06-28T07:49:03Z</time>
      </trkpt>
      <trkpt lat="44.84833" lon="5.19164">
        <ele>699.6</ele>
        <time>2015-06-28T07:49:13Z</time>
      </trkpt>
      <trkpt lat="44.84833" lon="5.19165">
        <ele>699.9</ele>
        <time>2015-06-28T07:49:14Z</time>
      </trkpt>
      <trkpt lat="44.84837" lon="5.19185">
        <ele>701.2</ele>
        <time>2015-06-28T07:49:49Z</time>
      </trkpt>
      <trkpt lat="44.84847" lon="5.19207">
        <ele>701.8</ele>
        <time>2015-06-28T07:51:44Z</time>
      </trkpt>
      <trkpt lat="44.84847" lon="5.19208">
        <ele>702.3</ele>
        <time>2015-06-28T07:51:45Z</time>
      </trkpt>
      <trkpt lat="44.84848" lon="5.19229">
        <ele>703.9</ele>
        <time>2015-06-28T07:52:02Z</time>
      </trkpt>
      <trkpt lat="44.84851" lon="5.19241">
        <ele>703.6</ele>
        <time>2015-06-28T07:52:12Z</time>
      </trkpt>
      <trkpt lat="44.84851" lon="5.19253">
        <ele>704.3</ele>
        <time>2015-06-28T07:52:20Z</time>
      </trkpt>
      <trkpt lat="44.84854" lon="5.19265">
        <ele>705.7</ele>
        <time>2015-06-28T07:52:31Z</time>
      </trkpt>
      <trkpt lat="44.84859" lon="5.19274">
        <ele>707.3</ele>
        <time>2015-06-28T07:52:42Z</time>
      </trkpt>
      <trkpt lat="44.84865" lon="5.19284">
        <ele>707.9</ele>
        <time>2015-06-28T07:53:20Z</time>
      </trkpt>
      <trkpt lat="44.84866" lon="5.19285">
        <ele>708</ele>
        <time>2015-06-28T07:53:21Z</time>
      </trkpt>
      <trkpt lat="44.8487" lon="5.19303">
        <ele>709</ele>
        <time>2015-06-28T07:53:38Z</time>
      </trkpt>
      <trkpt lat="44.84879" lon="5.19301">
        <ele>709.4</ele>
        <time>2015-06-28T07:53:54Z</time>
      </trkpt>
      <trkpt lat="44.84887" lon="5.19299">
        <ele>709.2</ele>
        <time>2015-06-28T07:54:06Z</time>
      </trkpt>
      <trkpt lat="44.84895" lon="5.19297">
        <ele>708.9</ele>
        <time>2015-06-28T07:54:15Z</time>
      </trkpt>
      <trkpt lat="44.84903" lon="5.19301">
        <ele>709.8</ele>
        <time>2015-06-28T07:54:23Z</time>
      </trkpt>
      <trkpt lat="44.84904" lon="5.19301">
        <ele>709.5</ele>
        <time>2015-06-28T07:54:24Z</time>
      </trkpt>
      <trkpt lat="44.84919" lon="5.19307">
        <ele>709.6</ele>
        <time>2015-06-28T07:54:40Z</time>
      </trkpt>
      <trkpt lat="44.84927" lon="5.19308">
        <ele>708.2</ele>
        <time>2015-06-28T07:54:47Z</time>
      </trkpt>
      <trkpt lat="44.84935" lon="5.19313">
        <ele>709</ele>
        <time>2015-06-28T07:54:55Z</time>
      </trkpt>
      <trkpt lat="44.84944" lon="5.19315">
        <ele>710</ele>
        <time>2015-06-28T07:55:04Z</time>
      </trkpt>
      <trkpt lat="44.84951" lon="5.19319">
        <ele>709.5</ele>
        <time>2015-06-28T07:55:12Z</time>
      </trkpt>
      <trkpt lat="44.84959" lon="5.19323">
        <ele>708.2</ele>
        <time>2015-06-28T07:55:18Z</time>
      </trkpt>
      <trkpt lat="44.84966" lon="5.19328">
        <ele>709.2</ele>
        <time>2015-06-28T07:55:26Z</time>
      </trkpt>
      <trkpt lat="44.84967" lon="5.19328">
        <ele>708.8</ele>
        <time>2015-06-28T07:55:27Z</time>
      </trkpt>
      <trkpt lat="44.84982" lon="5.19334">
        <ele>709.9</ele>
        <time>2015-06-28T07:55:44Z</time>
      </trkpt>
      <trkpt lat="44.84987" lon="5.19342">
        <ele>710.3</ele>
        <time>2015-06-28T07:55:51Z</time>
      </trkpt>
      <trkpt lat="44.84995" lon="5.19344">
        <ele>711</ele>
        <time>2015-06-28T07:56:01Z</time>
      </trkpt>
      <trkpt lat="44.85002" lon="5.19352">
        <ele>712.8</ele>
        <time>2015-06-28T07:56:13Z</time>
      </trkpt>
      <trkpt lat="44.85011" lon="5.19355">
        <ele>713</ele>
        <time>2015-06-28T07:56:22Z</time>
      </trkpt>
      <trkpt lat="44.85019" lon="5.19353">
        <ele>712.6</ele>
        <time>2015-06-28T07:56:30Z</time>
      </trkpt>
      <trkpt lat="44.8502" lon="5.19354">
        <ele>713.4</ele>
        <time>2015-06-28T07:56:31Z</time>
      </trkpt>
      <trkpt lat="44.85035" lon="5.19361">
        <ele>715.4</ele>
        <time>2015-06-28T07:56:46Z</time>
      </trkpt>
      <trkpt lat="44.85043" lon="5.19365">
        <ele>716.8</ele>
        <time>2015-06-28T07:56:55Z</time>
      </trkpt>
      <trkpt lat="44.85052" lon="5.19365">
        <ele>717.9</ele>
        <time>2015-06-28T07:57:03Z</time>
      </trkpt>
      <trkpt lat="44.8506" lon="5.19361">
        <ele>718.7</ele>
        <time>2015-06-28T07:57:11Z</time>
      </trkpt>
      <trkpt lat="44.85068" lon="5.19362">
        <ele>718.6</ele>
        <time>2015-06-28T07:57:17Z</time>
      </trkpt>
      <trkpt lat="44.85075" lon="5.19358">
        <ele>718.5</ele>
        <time>2015-06-28T07:57:23Z</time>
      </trkpt>
      <trkpt lat="44.85083" lon="5.19356">
        <ele>718.4</ele>
        <time>2015-06-28T07:57:31Z</time>
      </trkpt>
      <trkpt lat="44.85085" lon="5.19357">
        <ele>718.4</ele>
        <time>2015-06-28T07:57:32Z</time>
      </trkpt>
      <trkpt lat="44.851" lon="5.19355">
        <ele>718.5</ele>
        <time>2015-06-28T07:57:44Z</time>
      </trkpt>
      <trkpt lat="44.85109" lon="5.19357">
        <ele>719.1</ele>
        <time>2015-06-28T07:57:57Z</time>
      </trkpt>
      <trkpt lat="44.85117" lon="5.1936">
        <ele>720.2</ele>
        <time>2015-06-28T07:58:07Z</time>
      </trkpt>
      <trkpt lat="44.85125" lon="5.19364">
        <ele>722.3</ele>
        <time>2015-06-28T07:58:19Z</time>
      </trkpt>
      <trkpt lat="44.85133" lon="5.19364">
        <ele>722.1</ele>
        <time>2015-06-28T07:58:30Z</time>
      </trkpt>
      <trkpt lat="44.85141" lon="5.19363">
        <ele>722.5</ele>
        <time>2015-06-28T07:58:36Z</time>
      </trkpt>
      <trkpt lat="44.85143" lon="5.19363">
        <ele>722.3</ele>
        <time>2015-06-28T07:58:37Z</time>
      </trkpt>
      <trkpt lat="44.85158" lon="5.19357">
        <ele>723.7</ele>
        <time>2015-06-28T07:58:49Z</time>
      </trkpt>
      <trkpt lat="44.85166" lon="5.19357">
        <ele>724.2</ele>
        <time>2015-06-28T07:58:58Z</time>
      </trkpt>
      <trkpt lat="44.85174" lon="5.19356">
        <ele>725</ele>
        <time>2015-06-28T07:59:09Z</time>
      </trkpt>
      <trkpt lat="44.85183" lon="5.19358">
        <ele>727</ele>
        <time>2015-06-28T07:59:21Z</time>
      </trkpt>
      <trkpt lat="44.85191" lon="5.19354">
        <ele>727.4</ele>
        <time>2015-06-28T07:59:29Z</time>
      </trkpt>
      <trkpt lat="44.85197" lon="5.19349">
        <ele>728.5</ele>
        <time>2015-06-28T07:59:37Z</time>
      </trkpt>
      <trkpt lat="44.85199" lon="5.19348">
        <ele>728.3</ele>
        <time>2015-06-28T07:59:38Z</time>
      </trkpt>
      <trkpt lat="44.85213" lon="5.19338">
        <ele>728.6</ele>
        <time>2015-06-28T07:59:52Z</time>
      </trkpt>
      <trkpt lat="44.85221" lon="5.19335">
        <ele>728.9</ele>
        <time>2015-06-28T08:00:00Z</time>
      </trkpt>
      <trkpt lat="44.8523" lon="5.19331">
        <ele>729.6</ele>
        <time>2015-06-28T08:00:08Z</time>
      </trkpt>
      <trkpt lat="44.85237" lon="5.19324">
        <ele>730.9</ele>
        <time>2015-06-28T08:00:17Z</time>
      </trkpt>
      <trkpt lat="44.85244" lon="5.19317">
        <ele>730.5</ele>
        <time>2015-06-28T08:00:28Z</time>
      </trkpt>
      <trkpt lat="44.85251" lon="5.19311">
        <ele>731.9</ele>
        <time>2015-06-28T08:00:35Z</time>
      </trkpt>
      <trkpt lat="44.85259" lon="5.19305">
        <ele>732</ele>
        <time>2015-06-28T08:00:44Z</time>
      </trkpt>
      <trkpt lat="44.85259" lon="5.19304">
        <ele>732.3</ele>
        <time>2015-06-28T08:00:45Z</time>
      </trkpt>
      <trkpt lat="44.85273" lon="5.19294">
        <ele>733.3</ele>
        <time>2015-06-28T08:01:03Z</time>
      </trkpt>
      <trkpt lat="44.85281" lon="5.19292">
        <ele>731.6</ele>
        <time>2015-06-28T08:02:29Z</time>
      </trkpt>
      <trkpt lat="44.85282" lon="5.19292">
        <ele>731.8</ele>
        <time>2015-06-28T08:02:30Z</time>
      </trkpt>
      <trkpt lat="44.85281" lon="5.19291">
        <ele>731.5</ele>
        <time>2015-06-28T08:04:39Z</time>
      </trkpt>
      <trkpt lat="44.85281" lon="5.19291">
        <ele>731.1</ele>
        <time>2015-06-28T08:04:40Z</time>
      </trkpt>
      <trkpt lat="44.85272" lon="5.1929">
        <ele>726.3</ele>
        <time>2015-06-28T08:06:14Z</time>
      </trkpt>
      <trkpt lat="44.85288" lon="5.19277">
        <ele>725.1</ele>
        <time>2015-06-28T08:06:43Z</time>
      </trkpt>
      <trkpt lat="44.85293" lon="5.19268">
        <ele>723.2</ele>
        <time>2015-06-28T08:06:58Z</time>
      </trkpt>
      <trkpt lat="44.85293" lon="5.19257">
        <ele>721.6</ele>
        <time>2015-06-28T08:07:08Z</time>
      </trkpt>
      <trkpt lat="44.85298" lon="5.19246">
        <ele>721.6</ele>
        <time>2015-06-28T08:07:19Z</time>
      </trkpt>
      <trkpt lat="44.85299" lon="5.19245">
        <ele>721.8</ele>
        <time>2015-06-28T08:07:20Z</time>
      </trkpt>
      <trkpt lat="44.8531" lon="5.19234">
        <ele>721.6</ele>
        <time>2015-06-28T08:07:36Z</time>
      </trkpt>
      <trkpt lat="44.85318" lon="5.19228">
        <ele>721.4</ele>
        <time>2015-06-28T08:07:44Z</time>
      </trkpt>
      <trkpt lat="44.85319" lon="5.19215">
        <ele>720.7</ele>
        <time>2015-06-28T08:08:00Z</time>
      </trkpt>
      <trkpt lat="44.85316" lon="5.19204">
        <ele>719.4</ele>
        <time>2015-06-28T08:08:13Z</time>
      </trkpt>
      <trkpt lat="44.85314" lon="5.19193">
        <ele>719.5</ele>
        <time>2015-06-28T08:08:28Z</time>
      </trkpt>
      <trkpt lat="44.85314" lon="5.19192">
        <ele>719.5</ele>
        <time>2015-06-28T08:08:29Z</time>
      </trkpt>
      <trkpt lat="44.85313" lon="5.19169">
        <ele>718.1</ele>
        <time>2015-06-28T08:08:48Z</time>
      </trkpt>
      <trkpt lat="44.85314" lon="5.19158">
        <ele>716.4</ele>
        <time>2015-06-28T08:08:55Z</time>
      </trkpt>
      <trkpt lat="44.85314" lon="5.19145">
        <ele>714.5</ele>
        <time>2015-06-28T08:09:07Z</time>
      </trkpt>
      <trkpt lat="44.85317" lon="5.19135">
        <ele>711.4</ele>
        <time>2015-06-28T08:09:39Z</time>
      </trkpt>
      <trkpt lat="44.85317" lon="5.19134">
        <ele>711</ele>
        <time>2015-06-28T08:09:40Z</time>
      </trkpt>
      <trkpt lat="44.85312" lon="5.19115">
        <ele>708.5</ele>
        <time>2015-06-28T08:10:55Z</time>
      </trkpt>
      <trkpt lat="44.85312" lon="5.19114">
        <ele>708.6</ele>
        <time>2015-06-28T08:10:56Z</time>
      </trkpt>
      <trkpt lat="44.85305" lon="5.19111">
        <ele>698.7</ele>
        <time>2015-06-28T08:11:58Z</time>
      </trkpt>
      <trkpt lat="44.85305" lon="5.1911">
        <ele>698.6</ele>
        <time>2015-06-28T08:11:59Z</time>
      </trkpt>
      <trkpt lat="44.85306" lon="5.19082">
        <ele>693.7</ele>
        <time>2015-06-28T08:12:43Z</time>
      </trkpt>
      <trkpt lat="44.85326" lon="5.19078">
        <ele>681</ele>
        <time>2015-06-28T08:21:55Z</time>
      </trkpt>
      <trkpt lat="44.8533" lon="5.19076">
        <ele>681</ele>
        <time>2015-06-28T08:22:18Z</time>
      </trkpt>
      <trkpt lat="44.85348" lon="5.19081">
        <ele>682.3</ele>
        <time>2015-06-28T08:22:26Z</time>
      </trkpt>
      <trkpt lat="44.85352" lon="5.19081">
        <ele>682</ele>
        <time>2015-06-28T08:22:57Z</time>
      </trkpt>
      <trkpt lat="44.85355" lon="5.19087">
        <ele>683.9</ele>
        <time>2015-06-28T08:23:33Z</time>
      </trkpt>
      <trkpt lat="44.85356" lon="5.19086">
        <ele>683.5</ele>
        <time>2015-06-28T08:23:34Z</time>
      </trkpt>
      <trkpt lat="44.85374" lon="5.19094">
        <ele>686.6</ele>
        <time>2015-06-28T08:24:06Z</time>
      </trkpt>
      <trkpt lat="44.85382" lon="5.19093">
        <ele>687.4</ele>
        <time>2015-06-28T08:24:22Z</time>
      </trkpt>
      <trkpt lat="44.8539" lon="5.19096">
        <ele>688.5</ele>
        <time>2015-06-28T08:24:54Z</time>
      </trkpt>
      <trkpt lat="44.85391" lon="5.19097">
        <ele>688.4</ele>
        <time>2015-06-28T08:24:55Z</time>
      </trkpt>
      <trkpt lat="44.85404" lon="5.19094">
        <ele>687</ele>
        <time>2015-06-28T08:26:05Z</time>
      </trkpt>
      <trkpt lat="44.85418" lon="5.19092">
        <ele>690</ele>
        <time>2015-06-28T08:26:45Z</time>
      </trkpt>
      <trkpt lat="44.85428" lon="5.19098">
        <ele>689</ele>
        <time>2015-06-28T08:27:07Z</time>
      </trkpt>
      <trkpt lat="44.85433" lon="5.19101">
        <ele>690.3</ele>
        <time>2015-06-28T08:27:13Z</time>
      </trkpt>
      <trkpt lat="44.85459" lon="5.19092">
        <ele>691</ele>
        <time>2015-06-28T08:28:40Z</time>
      </trkpt>
      <trkpt lat="44.85452" lon="5.19097">
        <ele>692.2</ele>
        <time>2015-06-28T08:28:56Z</time>
      </trkpt>
      <trkpt lat="44.85462" lon="5.19092">
        <ele>692</ele>
        <time>2015-06-28T08:29:49Z</time>
      </trkpt>
      <trkpt lat="44.8547" lon="5.191">
        <ele>693</ele>
        <time>2015-06-28T08:29:54Z</time>
      </trkpt>
      <trkpt lat="44.85473" lon="5.19089">
        <ele>693.4</ele>
        <time>2015-06-28T08:29:56Z</time>
      </trkpt>
      <trkpt lat="44.85485" lon="5.19089">
        <ele>694.6</ele>
        <time>2015-06-28T08:30:43Z</time>
      </trkpt>
      <trkpt lat="44.85494" lon="5.19098">
        <ele>695</ele>
        <time>2015-06-28T08:31:26Z</time>
      </trkpt>
      <trkpt lat="44.85495" lon="5.19101">
        <ele>695.1</ele>
        <time>2015-06-28T08:31:28Z</time>
      </trkpt>
      <trkpt lat="44.85505" lon="5.19106">
        <ele>695</ele>
        <time>2015-06-28T08:31:58Z</time>
      </trkpt>
      <trkpt lat="44.85511" lon="5.19109">
        <ele>694</ele>
        <time>2015-06-28T08:32:32Z</time>
      </trkpt>
      <trkpt lat="44.85522" lon="5.19111">
        <ele>696</ele>
        <time>2015-06-28T08:34:00Z</time>
      </trkpt>
      <trkpt lat="44.85523" lon="5.1911">
        <ele>696.3</ele>
        <time>2015-06-28T08:34:02Z</time>
      </trkpt>
      <trkpt lat="44.85535" lon="5.1912">
        <ele>695</ele>
        <time>2015-06-28T08:35:09Z</time>
      </trkpt>
      <trkpt lat="44.85546" lon="5.19133">
        <ele>695.5</ele>
        <time>2015-06-28T08:36:10Z</time>
      </trkpt>
      <trkpt lat="44.8556" lon="5.19138">
        <ele>697</ele>
        <time>2015-06-28T08:36:51Z</time>
      </trkpt>
      <trkpt lat="44.85564" lon="5.19146">
        <ele>698</ele>
        <time>2015-06-28T08:37:08Z</time>
      </trkpt>
      <trkpt lat="44.85569" lon="5.19135">
        <ele>698.1</ele>
        <time>2015-06-28T08:37:12Z</time>
      </trkpt>
      <trkpt lat="44.85576" lon="5.19139">
        <ele>700.7</ele>
        <time>2015-06-28T08:40:17Z</time>
      </trkpt>
      <trkpt lat="44.85569" lon="5.19135">
        <ele>700</ele>
        <time>2015-06-28T08:40:41Z</time>
      </trkpt>
      <trkpt lat="44.85579" lon="5.19143">
        <ele>701</ele>
        <time>2015-06-28T08:40:57Z</time>
      </trkpt>
      <trkpt lat="44.85586" lon="5.19152">
        <ele>707.5</ele>
        <time>2015-06-28T08:43:27Z</time>
      </trkpt>
      <trkpt lat="44.85587" lon="5.19152">
        <ele>707.6</ele>
        <time>2015-06-28T08:43:28Z</time>
      </trkpt>
      <trkpt lat="44.85603" lon="5.19152">
        <ele>710.5</ele>
        <time>2015-06-28T08:44:43Z</time>
      </trkpt>
      <trkpt lat="44.85603" lon="5.19153">
        <ele>710.4</ele>
        <time>2015-06-28T08:44:44Z</time>
      </trkpt>
      <trkpt lat="44.8562" lon="5.19148">
        <ele>711.1</ele>
        <time>2015-06-28T08:45:20Z</time>
      </trkpt>
      <trkpt lat="44.85633" lon="5.19145">
        <ele>711.5</ele>
        <time>2015-06-28T08:45:29Z</time>
      </trkpt>
      <trkpt lat="44.85641" lon="5.19139">
        <ele>711.6</ele>
        <time>2015-06-28T08:45:38Z</time>
      </trkpt>
      <trkpt lat="44.8565" lon="5.19131">
        <ele>711.6</ele>
        <time>2015-06-28T08:45:48Z</time>
      </trkpt>
      <trkpt lat="44.85656" lon="5.19119">
        <ele>713</ele>
        <time>2015-06-28T08:46:31Z</time>
      </trkpt>
      <trkpt lat="44.85663" lon="5.19106">
        <ele>712</ele>
        <time>2015-06-28T08:46:40Z</time>
      </trkpt>
      <trkpt lat="44.85669" lon="5.19095">
        <ele>712</ele>
        <time>2015-06-28T08:46:48Z</time>
      </trkpt>
      <trkpt lat="44.8567" lon="5.19095">
        <ele>712.8</ele>
        <time>2015-06-28T08:46:50Z</time>
      </trkpt>
      <trkpt lat="44.85671" lon="5.19077">
        <ele>713</ele>
        <time>2015-06-28T08:48:49Z</time>
      </trkpt>
      <trkpt lat="44.85677" lon="5.19061">
        <ele>713.5</ele>
        <time>2015-06-28T08:48:58Z</time>
      </trkpt>
      <trkpt lat="44.85674" lon="5.19052">
        <ele>716</ele>
        <time>2015-06-28T08:53:00Z</time>
      </trkpt>
      <trkpt lat="44.85675" lon="5.19037">
        <ele>717.1</ele>
        <time>2015-06-28T08:53:04Z</time>
      </trkpt>
      <trkpt lat="44.85682" lon="5.19016">
        <ele>716</ele>
        <time>2015-06-28T08:53:35Z</time>
      </trkpt>
      <trkpt lat="44.85713" lon="5.19019">
        <ele>718</ele>
        <time>2015-06-28T08:55:12Z</time>
      </trkpt>
      <trkpt lat="44.85715" lon="5.19024">
        <ele>719.6</ele>
        <time>2015-06-28T08:55:16Z</time>
      </trkpt>
      <trkpt lat="44.85731" lon="5.19011">
        <ele>722</ele>
        <time>2015-06-28T08:56:28Z</time>
      </trkpt>
      <trkpt lat="44.85731" lon="5.19008">
        <ele>722.3</ele>
        <time>2015-06-28T08:56:32Z</time>
      </trkpt>
      <trkpt lat="44.85741" lon="5.19006">
        <ele>722</ele>
        <time>2015-06-28T08:57:19Z</time>
      </trkpt>
      <trkpt lat="44.85751" lon="5.19003">
        <ele>723</ele>
        <time>2015-06-28T08:57:33Z</time>
      </trkpt>
      <trkpt lat="44.85753" lon="5.19005">
        <ele>723.8</ele>
        <time>2015-06-28T08:57:37Z</time>
      </trkpt>
      <trkpt lat="44.85758" lon="5.18996">
        <ele>725</ele>
        <time>2015-06-28T08:58:21Z</time>
      </trkpt>
      <trkpt lat="44.85768" lon="5.18989">
        <ele>725</ele>
        <time>2015-06-28T08:58:38Z</time>
      </trkpt>
      <trkpt lat="44.8577" lon="5.18985">
        <ele>726.5</ele>
        <time>2015-06-28T08:58:42Z</time>
      </trkpt>
      <trkpt lat="44.85783" lon="5.18962">
        <ele>727</ele>
        <time>2015-06-28T08:59:33Z</time>
      </trkpt>
      <trkpt lat="44.85793" lon="5.18962">
        <ele>727</ele>
        <time>2015-06-28T08:59:43Z</time>
      </trkpt>
      <trkpt lat="44.85794" lon="5.18963">
        <ele>727.6</ele>
        <time>2015-06-28T08:59:45Z</time>
      </trkpt>
      <trkpt lat="44.85799" lon="5.18949">
        <ele>728</ele>
        <time>2015-06-28T09:00:19Z</time>
      </trkpt>
      <trkpt lat="44.85807" lon="5.18933">
        <ele>729</ele>
        <time>2015-06-28T09:00:43Z</time>
      </trkpt>
      <trkpt lat="44.85814" lon="5.18917">
        <ele>729</ele>
        <time>2015-06-28T09:00:51Z</time>
      </trkpt>
      <trkpt lat="44.85823" lon="5.18907">
        <ele>730</ele>
        <time>2015-06-28T09:01:15Z</time>
      </trkpt>
      <trkpt lat="44.85832" lon="5.189">
        <ele>731</ele>
        <time>2015-06-28T09:01:31Z</time>
      </trkpt>
      <trkpt lat="44.85845" lon="5.18889">
        <ele>731</ele>
        <time>2015-06-28T09:01:47Z</time>
      </trkpt>
      <trkpt lat="44.85857" lon="5.18886">
        <ele>733.1</ele>
        <time>2015-06-28T09:02:37Z</time>
      </trkpt>
      <trkpt lat="44.85864" lon="5.18876">
        <ele>733.1</ele>
        <time>2015-06-28T09:02:38Z</time>
      </trkpt>
      <trkpt lat="44.85878" lon="5.1887">
        <ele>732.7</ele>
        <time>2015-06-28T09:03:07Z</time>
      </trkpt>
      <trkpt lat="44.85898" lon="5.18873">
        <ele>733.3</ele>
        <time>2015-06-28T09:03:27Z</time>
      </trkpt>
      <trkpt lat="44.85917" lon="5.18878">
        <ele>733</ele>
        <time>2015-06-28T09:03:35Z</time>
      </trkpt>
      <trkpt lat="44.85928" lon="5.18892">
        <ele>734</ele>
        <time>2015-06-28T09:03:48Z</time>
      </trkpt>
      <trkpt lat="44.85943" lon="5.18911">
        <ele>733</ele>
        <time>2015-06-28T09:04:22Z</time>
      </trkpt>
      <trkpt lat="44.85958" lon="5.18925">
        <ele>735</ele>
        <time>2015-06-28T09:05:10Z</time>
      </trkpt>
      <trkpt lat="44.85961" lon="5.18923">
        <ele>735.4</ele>
        <time>2015-06-28T09:05:12Z</time>
      </trkpt>
      <trkpt lat="44.85977" lon="5.18938">
        <ele>735</ele>
        <time>2015-06-28T09:05:54Z</time>
      </trkpt>
      <trkpt lat="44.85983" lon="5.18943">
        <ele>736.3</ele>
        <time>2015-06-28T09:06:14Z</time>
      </trkpt>
      <trkpt lat="44.85992" lon="5.18954">
        <ele>738.5</ele>
        <time>2015-06-28T09:07:22Z</time>
      </trkpt>
      <trkpt lat="44.86004" lon="5.18959">
        <ele>746</ele>
        <time>2015-06-28T09:09:07Z</time>
      </trkpt>
      <trkpt lat="44.86018" lon="5.18967">
        <ele>745.4</ele>
        <time>2015-06-28T09:09:33Z</time>
      </trkpt>
      <trkpt lat="44.86034" lon="5.18977">
        <ele>746</ele>
        <time>2015-06-28T09:10:19Z</time>
      </trkpt>
      <trkpt lat="44.86046" lon="5.18993">
        <ele>747</ele>
        <time>2015-06-28T09:10:37Z</time>
      </trkpt>
      <trkpt lat="44.86047" lon="5.18992">
        <ele>747.7</ele>
        <time>2015-06-28T09:10:39Z</time>
      </trkpt>
      <trkpt lat="44.8606" lon="5.18998">
        <ele>749.3</ele>
        <time>2015-06-28T09:11:34Z</time>
      </trkpt>
      <trkpt lat="44.86068" lon="5.1901">
        <ele>749</ele>
        <time>2015-06-28T09:11:48Z</time>
      </trkpt>
      <trkpt lat="44.86075" lon="5.19002">
        <ele>750.5</ele>
        <time>2015-06-28T09:11:52Z</time>
      </trkpt>
      <trkpt lat="44.86084" lon="5.19026">
        <ele>751</ele>
        <time>2015-06-28T09:12:21Z</time>
      </trkpt>
      <trkpt lat="44.86092" lon="5.19033">
        <ele>751</ele>
        <time>2015-06-28T09:12:37Z</time>
      </trkpt>
      <trkpt lat="44.86097" lon="5.19024">
        <ele>752</ele>
        <time>2015-06-28T09:13:03Z</time>
      </trkpt>
      <trkpt lat="44.86102" lon="5.19029">
        <ele>753.1</ele>
        <time>2015-06-28T09:13:07Z</time>
      </trkpt>
      <trkpt lat="44.86117" lon="5.1902">
        <ele>752</ele>
        <time>2015-06-28T09:13:35Z</time>
      </trkpt>
      <trkpt lat="44.8613" lon="5.19021">
        <ele>753</ele>
        <time>2015-06-28T09:13:51Z</time>
      </trkpt>
      <trkpt lat="44.86136" lon="5.19008">
        <ele>753</ele>
        <time>2015-06-28T09:13:59Z</time>
      </trkpt>
      <trkpt lat="44.86143" lon="5.18998">
        <ele>753</ele>
        <time>2015-06-28T09:14:15Z</time>
      </trkpt>
      <trkpt lat="44.86148" lon="5.18992">
        <ele>753.4</ele>
        <time>2015-06-28T09:14:19Z</time>
      </trkpt>
      <trkpt lat="44.86145" lon="5.18962">
        <ele>753</ele>
        <time>2015-06-28T09:14:31Z</time>
      </trkpt>
      <trkpt lat="44.86149" lon="5.18934">
        <ele>756</ele>
        <time>2015-06-28T09:15:23Z</time>
      </trkpt>
      <trkpt lat="44.86153" lon="5.18923">
        <ele>758</ele>
        <time>2015-06-28T09:16:13Z</time>
      </trkpt>
      <trkpt lat="44.86163" lon="5.18912">
        <ele>758</ele>
        <time>2015-06-28T09:16:25Z</time>
      </trkpt>
      <trkpt lat="44.86164" lon="5.18912">
        <ele>758.6</ele>
        <time>2015-06-28T09:16:27Z</time>
      </trkpt>
      <trkpt lat="44.86176" lon="5.18901">
        <ele>759</ele>
        <time>2015-06-28T09:16:57Z</time>
      </trkpt>
      <trkpt lat="44.86186" lon="5.1889">
        <ele>759</ele>
        <time>2015-06-28T09:17:13Z</time>
      </trkpt>
      <trkpt lat="44.862" lon="5.18879">
        <ele>759</ele>
        <time>2015-06-28T09:17:28Z</time>
      </trkpt>
      <trkpt lat="44.86209" lon="5.18879">
        <ele>759.8</ele>
        <time>2015-06-28T09:17:32Z</time>
      </trkpt>
      <trkpt lat="44.86222" lon="5.18881">
        <ele>761</ele>
        <time>2015-06-28T09:17:50Z</time>
      </trkpt>
      <trkpt lat="44.86233" lon="5.18887">
        <ele>761</ele>
        <time>2015-06-28T09:17:55Z</time>
      </trkpt>
      <trkpt lat="44.86233" lon="5.18885">
        <ele>762</ele>
        <time>2015-06-28T09:18:51Z</time>
      </trkpt>
      <trkpt lat="44.86232" lon="5.18887">
        <ele>762.8</ele>
        <time>2015-06-28T09:18:53Z</time>
      </trkpt>
      <trkpt lat="44.86244" lon="5.18881">
        <ele>761</ele>
        <time>2015-06-28T09:19:43Z</time>
      </trkpt>
      <trkpt lat="44.86253" lon="5.18887">
        <ele>762</ele>
        <time>2015-06-28T09:19:51Z</time>
      </trkpt>
      <trkpt lat="44.86258" lon="5.18893">
        <ele>762</ele>
        <time>2015-06-28T09:21:50Z</time>
      </trkpt>
      <trkpt lat="44.86275" lon="5.18903">
        <ele>763</ele>
        <time>2015-06-28T09:22:07Z</time>
      </trkpt>
      <trkpt lat="44.86285" lon="5.18908">
        <ele>764.6</ele>
        <time>2015-06-28T09:22:29Z</time>
      </trkpt>
      <trkpt lat="44.86296" lon="5.18916">
        <ele>765</ele>
        <time>2015-06-28T09:23:01Z</time>
      </trkpt>
      <trkpt lat="44.86306" lon="5.18925">
        <ele>767</ele>
        <time>2015-06-28T09:24:19Z</time>
      </trkpt>
      <trkpt lat="44.86312" lon="5.18933">
        <ele>767</ele>
        <time>2015-06-28T09:24:35Z</time>
      </trkpt>
      <trkpt lat="44.86321" lon="5.18943">
        <ele>767</ele>
        <time>2015-06-28T09:24:43Z</time>
      </trkpt>
      <trkpt lat="44.86329" lon="5.18958">
        <ele>768.5</ele>
        <time>2015-06-28T09:24:47Z</time>
      </trkpt>
      <trkpt lat="44.86339" lon="5.18982">
        <ele>768</ele>
        <time>2015-06-28T09:25:12Z</time>
      </trkpt>
      <trkpt lat="44.86349" lon="5.18981">
        <ele>768</ele>
        <time>2015-06-28T09:25:28Z</time>
      </trkpt>
      <trkpt lat="44.86358" lon="5.18975">
        <ele>770</ele>
        <time>2015-06-28T09:25:44Z</time>
      </trkpt>
      <trkpt lat="44.86368" lon="5.18971">
        <ele>771.3</ele>
        <time>2015-06-28T09:25:48Z</time>
      </trkpt>
      <trkpt lat="44.86382" lon="5.18969">
        <ele>771</ele>
        <time>2015-06-28T09:26:16Z</time>
      </trkpt>
      <trkpt lat="44.86394" lon="5.18953">
        <ele>772</ele>
        <time>2015-06-28T09:26:24Z</time>
      </trkpt>
      <trkpt lat="44.86401" lon="5.18938">
        <ele>771</ele>
        <time>2015-06-28T09:26:40Z</time>
      </trkpt>
      <trkpt lat="44.86413" lon="5.18932">
        <ele>772</ele>
        <time>2015-06-28T09:26:56Z</time>
      </trkpt>
      <trkpt lat="44.86414" lon="5.18923">
        <ele>773.2</ele>
        <time>2015-06-28T09:27:00Z</time>
      </trkpt>
      <trkpt lat="44.86424" lon="5.18921">
        <ele>773</ele>
        <time>2015-06-28T09:27:29Z</time>
      </trkpt>
      <trkpt lat="44.86435" lon="5.189">
        <ele>773</ele>
        <time>2015-06-28T09:28:13Z</time>
      </trkpt>
      <trkpt lat="44.86436" lon="5.18905">
        <ele>774.3</ele>
        <time>2015-06-28T09:28:17Z</time>
      </trkpt>
      <trkpt lat="44.86429" lon="5.18913">
        <ele>774</ele>
        <time>2015-06-28T09:28:37Z</time>
      </trkpt>
      <trkpt lat="44.86439" lon="5.18895">
        <ele>774</ele>
        <time>2015-06-28T09:28:43Z</time>
      </trkpt>
      <trkpt lat="44.86447" lon="5.1889">
        <ele>775</ele>
        <time>2015-06-28T09:28:55Z</time>
      </trkpt>
      <trkpt lat="44.86457" lon="5.18882">
        <ele>776</ele>
        <time>2015-06-28T09:29:11Z</time>
      </trkpt>
      <trkpt lat="44.86465" lon="5.18876">
        <ele>775</ele>
        <time>2015-06-28T09:29:19Z</time>
      </trkpt>
      <trkpt lat="44.86469" lon="5.18871">
        <ele>776.9</ele>
        <time>2015-06-28T09:29:21Z</time>
      </trkpt>
      <trkpt lat="44.86487" lon="5.18868">
        <ele>776</ele>
        <time>2015-06-28T09:29:39Z</time>
      </trkpt>
      <trkpt lat="44.86501" lon="5.1886">
        <ele>777</ele>
        <time>2015-06-28T09:30:07Z</time>
      </trkpt>
      <trkpt lat="44.86512" lon="5.18863">
        <ele>778</ele>
        <time>2015-06-28T09:30:33Z</time>
      </trkpt>
      <trkpt lat="44.86518" lon="5.1887">
        <ele>779.2</ele>
        <time>2015-06-28T09:30:35Z</time>
      </trkpt>
      <trkpt lat="44.86537" lon="5.18879">
        <ele>779</ele>
        <time>2015-06-28T09:31:40Z</time>
      </trkpt>
      <trkpt lat="44.86541" lon="5.18879">
        <ele>779.6</ele>
        <time>2015-06-28T09:31:44Z</time>
      </trkpt>
      <trkpt lat="44.86542" lon="5.18878">
        <ele>778</ele>
        <time>2015-06-28T09:34:17Z</time>
      </trkpt>
      <trkpt lat="44.86547" lon="5.18878">
        <ele>779.3</ele>
        <time>2015-06-28T09:34:21Z</time>
      </trkpt>
      <trkpt lat="44.86558" lon="5.18879">
        <ele>781</ele>
        <time>2015-06-28T09:35:24Z</time>
      </trkpt>
      <trkpt lat="44.86572" lon="5.18877">
        <ele>782.2</ele>
        <time>2015-06-28T09:35:28Z</time>
      </trkpt>
      <trkpt lat="44.86577" lon="5.1888">
        <ele>783</ele>
        <time>2015-06-28T09:36:11Z</time>
      </trkpt>
      <trkpt lat="44.86586" lon="5.1888">
        <ele>784.5</ele>
        <time>2015-06-28T09:36:34Z</time>
      </trkpt>
      <trkpt lat="44.86598" lon="5.18878">
        <ele>784</ele>
        <time>2015-06-28T09:37:17Z</time>
      </trkpt>
      <trkpt lat="44.8661" lon="5.18881">
        <ele>785</ele>
        <time>2015-06-28T09:37:38Z</time>
      </trkpt>
      <trkpt lat="44.86619" lon="5.18879">
        <ele>786</ele>
        <time>2015-06-28T09:37:40Z</time>
      </trkpt>
      <trkpt lat="44.86624" lon="5.18879">
        <ele>787</ele>
        <time>2015-06-28T09:38:21Z</time>
      </trkpt>
      <trkpt lat="44.8663" lon="5.18889">
        <ele>787</ele>
        <time>2015-06-28T09:38:29Z</time>
      </trkpt>
      <trkpt lat="44.86641" lon="5.18896">
        <ele>787</ele>
        <time>2015-06-28T09:38:48Z</time>
      </trkpt>
      <trkpt lat="44.86642" lon="5.18897">
        <ele>788.3</ele>
        <time>2015-06-28T09:38:50Z</time>
      </trkpt>
      <trkpt lat="44.86655" lon="5.18912">
        <ele>789</ele>
        <time>2015-06-28T09:39:16Z</time>
      </trkpt>
      <trkpt lat="44.86662" lon="5.18922">
        <ele>790</ele>
        <time>2015-06-28T09:39:35Z</time>
      </trkpt>
      <trkpt lat="44.86663" lon="5.1892">
        <ele>790</ele>
        <time>2015-06-28T09:41:21Z</time>
      </trkpt>
      <trkpt lat="44.86664" lon="5.18922">
        <ele>790.2</ele>
        <time>2015-06-28T09:41:23Z</time>
      </trkpt>
      <trkpt lat="44.86661" lon="5.18917">
        <ele>789</ele>
        <time>2015-06-28T09:41:56Z</time>
      </trkpt>
      <trkpt lat="44.86669" lon="5.18925">
        <ele>790</ele>
        <time>2015-06-28T09:42:16Z</time>
      </trkpt>
      <trkpt lat="44.86676" lon="5.1893">
        <ele>789</ele>
        <time>2015-06-28T09:42:25Z</time>
      </trkpt>
      <trkpt lat="44.86677" lon="5.18931">
        <ele>789.6</ele>
        <time>2015-06-28T09:42:27Z</time>
      </trkpt>
      <trkpt lat="44.86685" lon="5.18952">
        <ele>791</ele>
        <time>2015-06-28T09:42:57Z</time>
      </trkpt>
      <trkpt lat="44.86682" lon="5.18969">
        <ele>791</ele>
        <time>2015-06-28T09:43:24Z</time>
      </trkpt>
      <trkpt lat="44.86675" lon="5.1896">
        <ele>794</ele>
        <time>2015-06-28T09:44:19Z</time>
      </trkpt>
      <trkpt lat="44.86675" lon="5.18961">
        <ele>795.5</ele>
        <time>2015-06-28T09:44:21Z</time>
      </trkpt>
      <trkpt lat="44.86656" lon="5.1896">
        <ele>801</ele>
        <time>2015-06-28T09:45:10Z</time>
      </trkpt>
      <trkpt lat="44.86649" lon="5.18944">
        <ele>804</ele>
        <time>2015-06-28T09:45:30Z</time>
      </trkpt>
      <trkpt lat="44.86649" lon="5.18941">
        <ele>804.8</ele>
        <time>2015-06-28T09:45:32Z</time>
      </trkpt>
      <trkpt lat="44.8663" lon="5.18939">
        <ele>807</ele>
        <time>2015-06-28T09:46:06Z</time>
      </trkpt>
      <trkpt lat="44.86622" lon="5.18937">
        <ele>808</ele>
        <time>2015-06-28T09:46:18Z</time>
      </trkpt>
      <trkpt lat="44.86603" lon="5.18934">
        <ele>809.6</ele>
        <time>2015-06-28T10:51:42Z</time>
      </trkpt>
      <trkpt lat="44.8659" lon="5.18948">
        <ele>810.5</ele>
        <time>2015-06-28T10:52:11Z</time>
      </trkpt>
      <trkpt lat="44.86581" lon="5.1895">
        <ele>811.4</ele>
        <time>2015-06-28T10:52:20Z</time>
      </trkpt>
      <trkpt lat="44.86572" lon="5.18952">
        <ele>811.6</ele>
        <time>2015-06-28T10:52:28Z</time>
      </trkpt>
      <trkpt lat="44.86564" lon="5.18956">
        <ele>811</ele>
        <time>2015-06-28T10:52:39Z</time>
      </trkpt>
      <trkpt lat="44.86558" lon="5.18954">
        <ele>811.4</ele>
        <time>2015-06-28T10:52:43Z</time>
      </trkpt>
      <trkpt lat="44.86555" lon="5.18951">
        <ele>812</ele>
        <time>2015-06-28T10:52:44Z</time>
      </trkpt>
      <trkpt lat="44.86542" lon="5.18953">
        <ele>814.4</ele>
        <time>2015-06-28T10:53:01Z</time>
      </trkpt>
      <trkpt lat="44.86539" lon="5.18964">
        <ele>814.9</ele>
        <time>2015-06-28T10:53:09Z</time>
      </trkpt>
      <trkpt lat="44.86535" lon="5.18976">
        <ele>816.1</ele>
        <time>2015-06-28T10:53:20Z</time>
      </trkpt>
      <trkpt lat="44.86534" lon="5.18987">
        <ele>817.3</ele>
        <time>2015-06-28T10:53:32Z</time>
      </trkpt>
      <trkpt lat="44.86531" lon="5.18998">
        <ele>818.8</ele>
        <time>2015-06-28T10:53:46Z</time>
      </trkpt>
      <trkpt lat="44.8653" lon="5.19">
        <ele>818.6</ele>
        <time>2015-06-28T10:53:47Z</time>
      </trkpt>
      <trkpt lat="44.86529" lon="5.19024">
        <ele>823.3</ele>
        <time>2015-06-28T10:54:16Z</time>
      </trkpt>
      <trkpt lat="44.86528" lon="5.19036">
        <ele>825.2</ele>
        <time>2015-06-28T10:54:45Z</time>
      </trkpt>
      <trkpt lat="44.8652" lon="5.19041">
        <ele>825.5</ele>
        <time>2015-06-28T10:55:00Z</time>
      </trkpt>
      <trkpt lat="44.86519" lon="5.19042">
        <ele>825.6</ele>
        <time>2015-06-28T10:55:01Z</time>
      </trkpt>
      <trkpt lat="44.8651" lon="5.19056">
        <ele>827.2</ele>
        <time>2015-06-28T10:55:34Z</time>
      </trkpt>
      <trkpt lat="44.86502" lon="5.19069">
        <ele>828.5</ele>
        <time>2015-06-28T10:55:46Z</time>
      </trkpt>
      <trkpt lat="44.8649" lon="5.19071">
        <ele>828.5</ele>
        <time>2015-06-28T10:55:52Z</time>
      </trkpt>
      <trkpt lat="44.86478" lon="5.19064">
        <ele>829.8</ele>
        <time>2015-06-28T10:56:03Z</time>
      </trkpt>
      <trkpt lat="44.86473" lon="5.19071">
        <ele>830</ele>
        <time>2015-06-28T10:56:04Z</time>
      </trkpt>
      <trkpt lat="44.86463" lon="5.19066">
        <ele>831.4</ele>
        <time>2015-06-28T10:56:16Z</time>
      </trkpt>
      <trkpt lat="44.86459" lon="5.19063">
        <ele>832.4</ele>
        <time>2015-06-28T10:56:27Z</time>
      </trkpt>
      <trkpt lat="44.8645" lon="5.19061">
        <ele>832</ele>
        <time>2015-06-28T10:56:33Z</time>
      </trkpt>
      <trkpt lat="44.86445" lon="5.19062">
        <ele>832.5</ele>
        <time>2015-06-28T10:56:45Z</time>
      </trkpt>
      <trkpt lat="44.86436" lon="5.19055">
        <ele>834</ele>
        <time>2015-06-28T10:56:58Z</time>
      </trkpt>
      <trkpt lat="44.8643" lon="5.19063">
        <ele>834.5</ele>
        <time>2015-06-28T10:57:03Z</time>
      </trkpt>
      <trkpt lat="44.86424" lon="5.19072">
        <ele>833.5</ele>
        <time>2015-06-28T10:57:20Z</time>
      </trkpt>
      <trkpt lat="44.86423" lon="5.19072">
        <ele>833.4</ele>
        <time>2015-06-28T10:57:21Z</time>
      </trkpt>
      <trkpt lat="44.8641" lon="5.19063">
        <ele>834.5</ele>
        <time>2015-06-28T10:57:51Z</time>
      </trkpt>
      <trkpt lat="44.86402" lon="5.1906">
        <ele>834.7</ele>
        <time>2015-06-28T10:57:56Z</time>
      </trkpt>
      <trkpt lat="44.86395" lon="5.19066">
        <ele>834.1</ele>
        <time>2015-06-28T10:58:03Z</time>
      </trkpt>
      <trkpt lat="44.86387" lon="5.19068">
        <ele>833.3</ele>
        <time>2015-06-28T10:58:08Z</time>
      </trkpt>
      <trkpt lat="44.86381" lon="5.19072">
        <ele>833.7</ele>
        <time>2015-06-28T10:58:15Z</time>
      </trkpt>
      <trkpt lat="44.86376" lon="5.1908">
        <ele>834.6</ele>
        <time>2015-06-28T10:58:19Z</time>
      </trkpt>
      <trkpt lat="44.86367" lon="5.19081">
        <ele>834.5</ele>
        <time>2015-06-28T10:58:25Z</time>
      </trkpt>
      <trkpt lat="44.86366" lon="5.19082">
        <ele>834.6</ele>
        <time>2015-06-28T10:58:26Z</time>
      </trkpt>
      <trkpt lat="44.86352" lon="5.19092">
        <ele>833.1</ele>
        <time>2015-06-28T10:58:44Z</time>
      </trkpt>
      <trkpt lat="44.86345" lon="5.19093">
        <ele>832.9</ele>
        <time>2015-06-28T10:58:49Z</time>
      </trkpt>
      <trkpt lat="44.86337" lon="5.19092">
        <ele>832.8</ele>
        <time>2015-06-28T10:58:55Z</time>
      </trkpt>
      <trkpt lat="44.86328" lon="5.19093">
        <ele>833.5</ele>
        <time>2015-06-28T10:59:03Z</time>
      </trkpt>
      <trkpt lat="44.8632" lon="5.19095">
        <ele>832.9</ele>
        <time>2015-06-28T10:59:12Z</time>
      </trkpt>
      <trkpt lat="44.86311" lon="5.19095">
        <ele>832.4</ele>
        <time>2015-06-28T10:59:20Z</time>
      </trkpt>
      <trkpt lat="44.86304" lon="5.19093">
        <ele>832.7</ele>
        <time>2015-06-28T10:59:25Z</time>
      </trkpt>
      <trkpt lat="44.86297" lon="5.19088">
        <ele>832.9</ele>
        <time>2015-06-28T10:59:33Z</time>
      </trkpt>
      <trkpt lat="44.86295" lon="5.19088">
        <ele>832.9</ele>
        <time>2015-06-28T10:59:34Z</time>
      </trkpt>
      <trkpt lat="44.86281" lon="5.19081">
        <ele>832.4</ele>
        <time>2015-06-28T10:59:50Z</time>
      </trkpt>
      <trkpt lat="44.86273" lon="5.19079">
        <ele>831.8</ele>
        <time>2015-06-28T10:59:57Z</time>
      </trkpt>
      <trkpt lat="44.86265" lon="5.19074">
        <ele>832</ele>
        <time>2015-06-28T11:00:01Z</time>
      </trkpt>
      <trkpt lat="44.86257" lon="5.19072">
        <ele>831.3</ele>
        <time>2015-06-28T11:00:09Z</time>
      </trkpt>
      <trkpt lat="44.86247" lon="5.19073">
        <ele>831</ele>
        <time>2015-06-28T11:00:16Z</time>
      </trkpt>
      <trkpt lat="44.86239" lon="5.19072">
        <ele>830.4</ele>
        <time>2015-06-28T11:00:24Z</time>
      </trkpt>
      <trkpt lat="44.86226" lon="5.19078">
        <ele>830</ele>
        <time>2015-06-28T11:00:34Z</time>
      </trkpt>
      <trkpt lat="44.86223" lon="5.19081">
        <ele>830.3</ele>
        <time>2015-06-28T11:00:36Z</time>
      </trkpt>
      <trkpt lat="44.8621" lon="5.19087">
        <ele>829.7</ele>
        <time>2015-06-28T11:00:46Z</time>
      </trkpt>
      <trkpt lat="44.86203" lon="5.19091">
        <ele>828.7</ele>
        <time>2015-06-28T11:00:51Z</time>
      </trkpt>
      <trkpt lat="44.86197" lon="5.19098">
        <ele>828.2</ele>
        <time>2015-06-28T11:00:57Z</time>
      </trkpt>
      <trkpt lat="44.8619" lon="5.19103">
        <ele>826.6</ele>
        <time>2015-06-28T11:01:05Z</time>
      </trkpt>
      <trkpt lat="44.86182" lon="5.19106">
        <ele>826</ele>
        <time>2015-06-28T11:01:09Z</time>
      </trkpt>
      <trkpt lat="44.86177" lon="5.19116">
        <ele>826.1</ele>
        <time>2015-06-28T11:01:19Z</time>
      </trkpt>
      <trkpt lat="44.86174" lon="5.19128">
        <ele>824.8</ele>
        <time>2015-06-28T11:01:28Z</time>
      </trkpt>
      <trkpt lat="44.86166" lon="5.19132">
        <ele>824.6</ele>
        <time>2015-06-28T11:01:34Z</time>
      </trkpt>
      <trkpt lat="44.86157" lon="5.19135">
        <ele>824</ele>
        <time>2015-06-28T11:01:43Z</time>
      </trkpt>
      <trkpt lat="44.86155" lon="5.19135">
        <ele>823.9</ele>
        <time>2015-06-28T11:01:44Z</time>
      </trkpt>
      <trkpt lat="44.86142" lon="5.19141">
        <ele>822.1</ele>
        <time>2015-06-28T11:01:59Z</time>
      </trkpt>
      <trkpt lat="44.86133" lon="5.19139">
        <ele>822.5</ele>
        <time>2015-06-28T11:02:04Z</time>
      </trkpt>
      <trkpt lat="44.86125" lon="5.19141">
        <ele>820.8</ele>
        <time>2015-06-28T11:02:10Z</time>
      </trkpt>
      <trkpt lat="44.86117" lon="5.19141">
        <ele>820.3</ele>
        <time>2015-06-28T11:02:17Z</time>
      </trkpt>
      <trkpt lat="44.86109" lon="5.19141">
        <ele>819.7</ele>
        <time>2015-06-28T11:02:23Z</time>
      </trkpt>
      <trkpt lat="44.86099" lon="5.1914">
        <ele>820</ele>
        <time>2015-06-28T11:02:30Z</time>
      </trkpt>
      <trkpt lat="44.86091" lon="5.19144">
        <ele>819.5</ele>
        <time>2015-06-28T11:02:41Z</time>
      </trkpt>
      <trkpt lat="44.86084" lon="5.19146">
        <ele>819</ele>
        <time>2015-06-28T11:02:45Z</time>
      </trkpt>
      <trkpt lat="44.86082" lon="5.19147">
        <ele>819</ele>
        <time>2015-06-28T11:02:46Z</time>
      </trkpt>
      <trkpt lat="44.86067" lon="5.19149">
        <ele>817.6</ele>
        <time>2015-06-28T11:03:00Z</time>
      </trkpt>
      <trkpt lat="44.86061" lon="5.19149">
        <ele>817.8</ele>
        <time>2015-06-28T11:03:04Z</time>
      </trkpt>
      <trkpt lat="44.86053" lon="5.19147">
        <ele>817.3</ele>
        <time>2015-06-28T11:03:07Z</time>
      </trkpt>
      <trkpt lat="44.86045" lon="5.19145">
        <ele>816.7</ele>
        <time>2015-06-28T11:03:16Z</time>
      </trkpt>
      <trkpt lat="44.86038" lon="5.19149">
        <ele>816.3</ele>
        <time>2015-06-28T11:03:22Z</time>
      </trkpt>
      <trkpt lat="44.8603" lon="5.19153">
        <ele>814.6</ele>
        <time>2015-06-28T11:03:29Z</time>
      </trkpt>
      <trkpt lat="44.86024" lon="5.19162">
        <ele>814.5</ele>
        <time>2015-06-28T11:03:34Z</time>
      </trkpt>
      <trkpt lat="44.86016" lon="5.19159">
        <ele>812.9</ele>
        <time>2015-06-28T11:03:43Z</time>
      </trkpt>
      <trkpt lat="44.86008" lon="5.19158">
        <ele>813.6</ele>
        <time>2015-06-28T11:03:51Z</time>
      </trkpt>
      <trkpt lat="44.86006" lon="5.19158">
        <ele>813.9</ele>
        <time>2015-06-28T11:03:52Z</time>
      </trkpt>
      <trkpt lat="44.85994" lon="5.19167">
        <ele>813.7</ele>
        <time>2015-06-28T11:04:03Z</time>
      </trkpt>
      <trkpt lat="44.85986" lon="5.19173">
        <ele>812.8</ele>
        <time>2015-06-28T11:04:10Z</time>
      </trkpt>
      <trkpt lat="44.85978" lon="5.19177">
        <ele>812.4</ele>
        <time>2015-06-28T11:04:23Z</time>
      </trkpt>
      <trkpt lat="44.85967" lon="5.19175">
        <ele>813.4</ele>
        <time>2015-06-28T11:04:30Z</time>
      </trkpt>
      <trkpt lat="44.85959" lon="5.19179">
        <ele>813.7</ele>
        <time>2015-06-28T11:04:42Z</time>
      </trkpt>
      <trkpt lat="44.85949" lon="5.19183">
        <ele>813</ele>
        <time>2015-06-28T11:04:52Z</time>
      </trkpt>
      <trkpt lat="44.85948" lon="5.19185">
        <ele>814.2</ele>
        <time>2015-06-28T11:04:54Z</time>
      </trkpt>
      <trkpt lat="44.85935" lon="5.19195">
        <ele>813.4</ele>
        <time>2015-06-28T11:05:06Z</time>
      </trkpt>
      <trkpt lat="44.85927" lon="5.19199">
        <ele>813</ele>
        <time>2015-06-28T11:05:13Z</time>
      </trkpt>
      <trkpt lat="44.85922" lon="5.19209">
        <ele>813.7</ele>
        <time>2015-06-28T11:05:19Z</time>
      </trkpt>
      <trkpt lat="44.85914" lon="5.19214">
        <ele>812.7</ele>
        <time>2015-06-28T11:05:25Z</time>
      </trkpt>
      <trkpt lat="44.85907" lon="5.1922">
        <ele>812.5</ele>
        <time>2015-06-28T11:05:34Z</time>
      </trkpt>
      <trkpt lat="44.85901" lon="5.19226">
        <ele>811.5</ele>
        <time>2015-06-28T11:05:41Z</time>
      </trkpt>
      <trkpt lat="44.85895" lon="5.19234">
        <ele>811.5</ele>
        <time>2015-06-28T11:05:47Z</time>
      </trkpt>
      <trkpt lat="44.85887" lon="5.19237">
        <ele>811.3</ele>
        <time>2015-06-28T11:05:52Z</time>
      </trkpt>
      <trkpt lat="44.85878" lon="5.19238">
        <ele>811.6</ele>
        <time>2015-06-28T11:06:01Z</time>
      </trkpt>
      <trkpt lat="44.85876" lon="5.19238">
        <ele>811.7</ele>
        <time>2015-06-28T11:06:02Z</time>
      </trkpt>
      <trkpt lat="44.85863" lon="5.19249">
        <ele>810.6</ele>
        <time>2015-06-28T11:06:18Z</time>
      </trkpt>
      <trkpt lat="44.85856" lon="5.19257">
        <ele>809.7</ele>
        <time>2015-06-28T11:06:25Z</time>
      </trkpt>
      <trkpt lat="44.85848" lon="5.19263">
        <ele>810.6</ele>
        <time>2015-06-28T11:06:33Z</time>
      </trkpt>
      <trkpt lat="44.85837" lon="5.19264">
        <ele>809.1</ele>
        <time>2015-06-28T11:06:43Z</time>
      </trkpt>
      <trkpt lat="44.85829" lon="5.19269">
        <ele>808.7</ele>
        <time>2015-06-28T11:06:49Z</time>
      </trkpt>
      <trkpt lat="44.85822" lon="5.19275">
        <ele>808</ele>
        <time>2015-06-28T11:06:57Z</time>
      </trkpt>
      <trkpt lat="44.85815" lon="5.19279">
        <ele>808.6</ele>
        <time>2015-06-28T11:07:03Z</time>
      </trkpt>
      <trkpt lat="44.85813" lon="5.19281">
        <ele>808.8</ele>
        <time>2015-06-28T11:07:04Z</time>
      </trkpt>
      <trkpt lat="44.85801" lon="5.19293">
        <ele>808.5</ele>
        <time>2015-06-28T11:07:21Z</time>
      </trkpt>
      <trkpt lat="44.85794" lon="5.193">
        <ele>808.8</ele>
        <time>2015-06-28T11:07:29Z</time>
      </trkpt>
      <trkpt lat="44.85785" lon="5.19303">
        <ele>809</ele>
        <time>2015-06-28T11:07:39Z</time>
      </trkpt>
      <trkpt lat="44.85778" lon="5.19308">
        <ele>808.6</ele>
        <time>2015-06-28T11:07:46Z</time>
      </trkpt>
      <trkpt lat="44.8577" lon="5.19311">
        <ele>809</ele>
        <time>2015-06-28T11:07:51Z</time>
      </trkpt>
      <trkpt lat="44.85763" lon="5.19319">
        <ele>808.4</ele>
        <time>2015-06-28T11:08:00Z</time>
      </trkpt>
      <trkpt lat="44.85757" lon="5.19324">
        <ele>808.6</ele>
        <time>2015-06-28T11:08:06Z</time>
      </trkpt>
      <trkpt lat="44.85755" lon="5.19325">
        <ele>808.5</ele>
        <time>2015-06-28T11:08:07Z</time>
      </trkpt>
      <trkpt lat="44.85739" lon="5.19331">
        <ele>808.3</ele>
        <time>2015-06-28T11:08:18Z</time>
      </trkpt>
      <trkpt lat="44.85732" lon="5.19337">
        <ele>807</ele>
        <time>2015-06-28T11:08:27Z</time>
      </trkpt>
      <trkpt lat="44.85724" lon="5.19334">
        <ele>807.5</ele>
        <time>2015-06-28T11:08:32Z</time>
      </trkpt>
      <trkpt lat="44.85718" lon="5.19341">
        <ele>807.5</ele>
        <time>2015-06-28T11:08:39Z</time>
      </trkpt>
      <trkpt lat="44.85711" lon="5.1935">
        <ele>807.9</ele>
        <time>2015-06-28T11:08:45Z</time>
      </trkpt>
      <trkpt lat="44.85703" lon="5.19354">
        <ele>806.8</ele>
        <time>2015-06-28T11:08:52Z</time>
      </trkpt>
      <trkpt lat="44.85696" lon="5.19355">
        <ele>806.1</ele>
        <time>2015-06-28T11:09:00Z</time>
      </trkpt>
      <trkpt lat="44.85688" lon="5.19361">
        <ele>806.4</ele>
        <time>2015-06-28T11:09:07Z</time>
      </trkpt>
      <trkpt lat="44.85686" lon="5.19363">
        <ele>806.2</ele>
        <time>2015-06-28T11:09:08Z</time>
      </trkpt>
      <trkpt lat="44.85674" lon="5.19375">
        <ele>806.5</ele>
        <time>2015-06-28T11:09:26Z</time>
      </trkpt>
      <trkpt lat="44.85666" lon="5.19377">
        <ele>806.1</ele>
        <time>2015-06-28T11:09:31Z</time>
      </trkpt>
      <trkpt lat="44.85657" lon="5.19378">
        <ele>805.7</ele>
        <time>2015-06-28T11:09:41Z</time>
      </trkpt>
      <trkpt lat="44.85649" lon="5.19384">
        <ele>806.4</ele>
        <time>2015-06-28T11:09:49Z</time>
      </trkpt>
      <trkpt lat="44.85641" lon="5.19382">
        <ele>805.1</ele>
        <time>2015-06-28T11:10:00Z</time>
      </trkpt>
      <trkpt lat="44.85632" lon="5.19381">
        <ele>804.5</ele>
        <time>2015-06-28T11:10:07Z</time>
      </trkpt>
      <trkpt lat="44.85624" lon="5.19383">
        <ele>803.4</ele>
        <time>2015-06-28T11:10:14Z</time>
      </trkpt>
      <trkpt lat="44.85623" lon="5.19382">
        <ele>803.9</ele>
        <time>2015-06-28T11:10:15Z</time>
      </trkpt>
      <trkpt lat="44.85605" lon="5.1939">
        <ele>802</ele>
        <time>2015-06-28T11:10:32Z</time>
      </trkpt>
      <trkpt lat="44.85596" lon="5.19391">
        <ele>801.3</ele>
        <time>2015-06-28T11:10:39Z</time>
      </trkpt>
      <trkpt lat="44.8559" lon="5.19398">
        <ele>801.2</ele>
        <time>2015-06-28T11:10:44Z</time>
      </trkpt>
      <trkpt lat="44.85581" lon="5.19404">
        <ele>801.2</ele>
        <time>2015-06-28T11:10:52Z</time>
      </trkpt>
      <trkpt lat="44.85574" lon="5.19411">
        <ele>799.9</ele>
        <time>2015-06-28T11:11:02Z</time>
      </trkpt>
      <trkpt lat="44.85566" lon="5.19417">
        <ele>799.9</ele>
        <time>2015-06-28T11:11:12Z</time>
      </trkpt>
      <trkpt lat="44.85557" lon="5.1942">
        <ele>799.1</ele>
        <time>2015-06-28T11:11:19Z</time>
      </trkpt>
      <trkpt lat="44.85557" lon="5.1942">
        <ele>798.8</ele>
        <time>2015-06-28T11:11:20Z</time>
      </trkpt>
      <trkpt lat="44.85543" lon="5.1943">
        <ele>797.4</ele>
        <time>2015-06-28T11:11:33Z</time>
      </trkpt>
      <trkpt lat="44.85538" lon="5.19439">
        <ele>797.2</ele>
        <time>2015-06-28T11:11:41Z</time>
      </trkpt>
      <trkpt lat="44.8553" lon="5.19444">
        <ele>796.7</ele>
        <time>2015-06-28T11:11:50Z</time>
      </trkpt>
      <trkpt lat="44.85522" lon="5.19446">
        <ele>796.4</ele>
        <time>2015-06-28T11:11:56Z</time>
      </trkpt>
      <trkpt lat="44.85516" lon="5.19453">
        <ele>794.8</ele>
        <time>2015-06-28T11:12:04Z</time>
      </trkpt>
      <trkpt lat="44.85508" lon="5.19455">
        <ele>794.6</ele>
        <time>2015-06-28T11:12:09Z</time>
      </trkpt>
      <trkpt lat="44.85499" lon="5.19457">
        <ele>794</ele>
        <time>2015-06-28T11:12:14Z</time>
      </trkpt>
      <trkpt lat="44.85491" lon="5.19456">
        <ele>793.4</ele>
        <time>2015-06-28T11:12:18Z</time>
      </trkpt>
      <trkpt lat="44.85483" lon="5.19458">
        <ele>792.5</ele>
        <time>2015-06-28T11:12:27Z</time>
      </trkpt>
      <trkpt lat="44.85482" lon="5.19458">
        <ele>792.9</ele>
        <time>2015-06-28T11:12:28Z</time>
      </trkpt>
      <trkpt lat="44.85466" lon="5.19456">
        <ele>791.3</ele>
        <time>2015-06-28T11:12:42Z</time>
      </trkpt>
      <trkpt lat="44.85459" lon="5.19464">
        <ele>791</ele>
        <time>2015-06-28T11:12:47Z</time>
      </trkpt>
      <trkpt lat="44.8545" lon="5.19466">
        <ele>791.1</ele>
        <time>2015-06-28T11:12:56Z</time>
      </trkpt>
      <trkpt lat="44.85441" lon="5.19467">
        <ele>789.8</ele>
        <time>2015-06-28T11:13:03Z</time>
      </trkpt>
      <trkpt lat="44.85435" lon="5.19474">
        <ele>788.7</ele>
        <time>2015-06-28T11:13:13Z</time>
      </trkpt>
      <trkpt lat="44.85428" lon="5.19481">
        <ele>789.3</ele>
        <time>2015-06-28T11:13:20Z</time>
      </trkpt>
      <trkpt lat="44.8542" lon="5.19485">
        <ele>788.3</ele>
        <time>2015-06-28T11:13:27Z</time>
      </trkpt>
      <trkpt lat="44.85415" lon="5.19494">
        <ele>788.1</ele>
        <time>2015-06-28T11:13:35Z</time>
      </trkpt>
      <trkpt lat="44.85414" lon="5.19494">
        <ele>788.5</ele>
        <time>2015-06-28T11:13:36Z</time>
      </trkpt>
      <trkpt lat="44.85401" lon="5.19509">
        <ele>786.6</ele>
        <time>2015-06-28T11:13:54Z</time>
      </trkpt>
      <trkpt lat="44.85395" lon="5.19517">
        <ele>787.3</ele>
        <time>2015-06-28T11:14:03Z</time>
      </trkpt>
      <trkpt lat="44.85387" lon="5.19522">
        <ele>786.2</ele>
        <time>2015-06-28T11:14:25Z</time>
      </trkpt>
      <trkpt lat="44.85378" lon="5.19525">
        <ele>786.1</ele>
        <time>2015-06-28T11:14:50Z</time>
      </trkpt>
      <trkpt lat="44.85377" lon="5.19525">
        <ele>785.9</ele>
        <time>2015-06-28T11:14:51Z</time>
      </trkpt>
      <trkpt lat="44.85363" lon="5.19527">
        <ele>785.2</ele>
        <time>2015-06-28T11:15:11Z</time>
      </trkpt>
      <trkpt lat="44.85359" lon="5.19528">
        <ele>784.3</ele>
        <time>2015-06-28T11:15:57Z</time>
      </trkpt>
      <trkpt lat="44.85358" lon="5.19526">
        <ele>784.4</ele>
        <time>2015-06-28T11:15:58Z</time>
      </trkpt>
      <trkpt lat="44.85346" lon="5.19526">
        <ele>783.3</ele>
        <time>2015-06-28T11:16:39Z</time>
      </trkpt>
      <trkpt lat="44.85342" lon="5.19535">
        <ele>782.8</ele>
        <time>2015-06-28T11:16:44Z</time>
      </trkpt>
      <trkpt lat="44.8534" lon="5.19547">
        <ele>782.8</ele>
        <time>2015-06-28T11:16:52Z</time>
      </trkpt>
      <trkpt lat="44.85335" lon="5.19561">
        <ele>782</ele>
        <time>2015-06-28T11:17:01Z</time>
      </trkpt>
      <trkpt lat="44.85333" lon="5.19561">
        <ele>782.5</ele>
        <time>2015-06-28T11:17:03Z</time>
      </trkpt>
      <trkpt lat="44.85321" lon="5.19572">
        <ele>782</ele>
        <time>2015-06-28T11:17:25Z</time>
      </trkpt>
      <trkpt lat="44.85313" lon="5.19575">
        <ele>781.1</ele>
        <time>2015-06-28T11:17:32Z</time>
      </trkpt>
      <trkpt lat="44.85305" lon="5.19576">
        <ele>779.9</ele>
        <time>2015-06-28T11:17:40Z</time>
      </trkpt>
      <trkpt lat="44.85297" lon="5.19578">
        <ele>780.3</ele>
        <time>2015-06-28T11:17:47Z</time>
      </trkpt>
      <trkpt lat="44.85289" lon="5.19579">
        <ele>780.1</ele>
        <time>2015-06-28T11:17:53Z</time>
      </trkpt>
      <trkpt lat="44.85281" lon="5.19586">
        <ele>780.4</ele>
        <time>2015-06-28T11:18:06Z</time>
      </trkpt>
      <trkpt lat="44.8528" lon="5.19585">
        <ele>779.8</ele>
        <time>2015-06-28T11:18:07Z</time>
      </trkpt>
      <trkpt lat="44.85263" lon="5.19589">
        <ele>778.7</ele>
        <time>2015-06-28T11:18:24Z</time>
      </trkpt>
      <trkpt lat="44.85254" lon="5.1959">
        <ele>777.9</ele>
        <time>2015-06-28T11:18:34Z</time>
      </trkpt>
      <trkpt lat="44.85247" lon="5.1959">
        <ele>777.3</ele>
        <time>2015-06-28T11:18:40Z</time>
      </trkpt>
      <trkpt lat="44.85239" lon="5.19588">
        <ele>777.2</ele>
        <time>2015-06-28T11:18:45Z</time>
      </trkpt>
      <trkpt lat="44.8523" lon="5.19588">
        <ele>777</ele>
        <time>2015-06-28T11:18:50Z</time>
      </trkpt>
      <trkpt lat="44.85222" lon="5.19587">
        <ele>776</ele>
        <time>2015-06-28T11:18:55Z</time>
      </trkpt>
      <trkpt lat="44.85213" lon="5.19587">
        <ele>775.9</ele>
        <time>2015-06-28T11:19:00Z</time>
      </trkpt>
      <trkpt lat="44.85206" lon="5.19593">
        <ele>774.6</ele>
        <time>2015-06-28T11:19:09Z</time>
      </trkpt>
      <trkpt lat="44.85203" lon="5.19593">
        <ele>774.5</ele>
        <time>2015-06-28T11:19:10Z</time>
      </trkpt>
      <trkpt lat="44.85189" lon="5.19596">
        <ele>772.2</ele>
        <time>2015-06-28T11:19:29Z</time>
      </trkpt>
      <trkpt lat="44.85181" lon="5.19595">
        <ele>772.3</ele>
        <time>2015-06-28T11:19:33Z</time>
      </trkpt>
      <trkpt lat="44.85172" lon="5.19595">
        <ele>771.8</ele>
        <time>2015-06-28T11:19:44Z</time>
      </trkpt>
      <trkpt lat="44.85164" lon="5.19596">
        <ele>771.4</ele>
        <time>2015-06-28T11:19:53Z</time>
      </trkpt>
      <trkpt lat="44.85153" lon="5.19594">
        <ele>769.8</ele>
        <time>2015-06-28T11:19:59Z</time>
      </trkpt>
      <trkpt lat="44.85145" lon="5.196">
        <ele>768.2</ele>
        <time>2015-06-28T11:20:08Z</time>
      </trkpt>
      <trkpt lat="44.85138" lon="5.19606">
        <ele>768.3</ele>
        <time>2015-06-28T11:20:21Z</time>
      </trkpt>
      <trkpt lat="44.85137" lon="5.19606">
        <ele>768.5</ele>
        <time>2015-06-28T11:20:22Z</time>
      </trkpt>
      <trkpt lat="44.85118" lon="5.1961">
        <ele>765</ele>
        <time>2015-06-28T11:20:35Z</time>
      </trkpt>
      <trkpt lat="44.85111" lon="5.19615">
        <ele>765.8</ele>
        <time>2015-06-28T11:20:41Z</time>
      </trkpt>
      <trkpt lat="44.85104" lon="5.19619">
        <ele>764.2</ele>
        <time>2015-06-28T11:20:48Z</time>
      </trkpt>
      <trkpt lat="44.85093" lon="5.19624">
        <ele>764</ele>
        <time>2015-06-28T11:20:57Z</time>
      </trkpt>
      <trkpt lat="44.85086" lon="5.19628">
        <ele>764.9</ele>
        <time>2015-06-28T11:21:03Z</time>
      </trkpt>
      <trkpt lat="44.85078" lon="5.19628">
        <ele>764.2</ele>
        <time>2015-06-28T11:21:09Z</time>
      </trkpt>
      <trkpt lat="44.8507" lon="5.19625">
        <ele>763.5</ele>
        <time>2015-06-28T11:21:14Z</time>
      </trkpt>
      <trkpt lat="44.85062" lon="5.19625">
        <ele>762.7</ele>
        <time>2015-06-28T11:21:21Z</time>
      </trkpt>
      <trkpt lat="44.85055" lon="5.19629">
        <ele>760.7</ele>
        <time>2015-06-28T11:21:28Z</time>
      </trkpt>
      <trkpt lat="44.85054" lon="5.1963">
        <ele>761.3</ele>
        <time>2015-06-28T11:21:29Z</time>
      </trkpt>
      <trkpt lat="44.8504" lon="5.19638">
        <ele>760.2</ele>
        <time>2015-06-28T11:21:41Z</time>
      </trkpt>
      <trkpt lat="44.85032" lon="5.1964">
        <ele>758.8</ele>
        <time>2015-06-28T11:21:53Z</time>
      </trkpt>
      <trkpt lat="44.85025" lon="5.19642">
        <ele>758.2</ele>
        <time>2015-06-28T11:22:01Z</time>
      </trkpt>
      <trkpt lat="44.85016" lon="5.19644">
        <ele>757.8</ele>
        <time>2015-06-28T11:22:06Z</time>
      </trkpt>
      <trkpt lat="44.85011" lon="5.19652">
        <ele>757</ele>
        <time>2015-06-28T11:22:12Z</time>
      </trkpt>
      <trkpt lat="44.85004" lon="5.19659">
        <ele>756.7</ele>
        <time>2015-06-28T11:22:21Z</time>
      </trkpt>
      <trkpt lat="44.84997" lon="5.1966">
        <ele>756.5</ele>
        <time>2015-06-28T11:22:27Z</time>
      </trkpt>
      <trkpt lat="44.84989" lon="5.19664">
        <ele>755.4</ele>
        <time>2015-06-28T11:22:34Z</time>
      </trkpt>
      <trkpt lat="44.84987" lon="5.19665">
        <ele>755.6</ele>
        <time>2015-06-28T11:22:35Z</time>
      </trkpt>
      <trkpt lat="44.84974" lon="5.19669">
        <ele>755</ele>
        <time>2015-06-28T11:22:46Z</time>
      </trkpt>
      <trkpt lat="44.84965" lon="5.19668">
        <ele>753.5</ele>
        <time>2015-06-28T11:22:51Z</time>
      </trkpt>
      <trkpt lat="44.84957" lon="5.19665">
        <ele>753.9</ele>
        <time>2015-06-28T11:22:55Z</time>
      </trkpt>
      <trkpt lat="44.84949" lon="5.19666">
        <ele>752.1</ele>
        <time>2015-06-28T11:23:03Z</time>
      </trkpt>
      <trkpt lat="44.84942" lon="5.19671">
        <ele>751.7</ele>
        <time>2015-06-28T11:23:12Z</time>
      </trkpt>
      <trkpt lat="44.84934" lon="5.19669">
        <ele>750.6</ele>
        <time>2015-06-28T11:23:19Z</time>
      </trkpt>
      <trkpt lat="44.84926" lon="5.1967">
        <ele>750.6</ele>
        <time>2015-06-28T11:23:25Z</time>
      </trkpt>
      <trkpt lat="44.84918" lon="5.19665">
        <ele>748.9</ele>
        <time>2015-06-28T11:23:33Z</time>
      </trkpt>
      <trkpt lat="44.84909" lon="5.19672">
        <ele>748</ele>
        <time>2015-06-28T11:23:50Z</time>
      </trkpt>
      <trkpt lat="44.84906" lon="5.19671">
        <ele>748.6</ele>
        <time>2015-06-28T11:23:54Z</time>
      </trkpt>
      <trkpt lat="44.84892" lon="5.19665">
        <ele>746</ele>
        <time>2015-06-28T11:24:15Z</time>
      </trkpt>
      <trkpt lat="44.84885" lon="5.19663">
        <ele>745.7</ele>
        <time>2015-06-28T11:24:23Z</time>
      </trkpt>
      <trkpt lat="44.84877" lon="5.19664">
        <ele>744.8</ele>
        <time>2015-06-28T11:24:29Z</time>
      </trkpt>
      <trkpt lat="44.84868" lon="5.19664">
        <ele>745</ele>
        <time>2015-06-28T11:24:33Z</time>
      </trkpt>
      <trkpt lat="44.8486" lon="5.19664">
        <ele>744.6</ele>
        <time>2015-06-28T11:24:39Z</time>
      </trkpt>
      <trkpt lat="44.84854" lon="5.19663">
        <ele>744.7</ele>
        <time>2015-06-28T11:24:42Z</time>
      </trkpt>
      <trkpt lat="44.84845" lon="5.19661">
        <ele>744.8</ele>
        <time>2015-06-28T11:24:47Z</time>
      </trkpt>
      <trkpt lat="44.84838" lon="5.19665">
        <ele>744</ele>
        <time>2015-06-28T11:24:57Z</time>
      </trkpt>
      <trkpt lat="44.84836" lon="5.19664">
        <ele>743.7</ele>
        <time>2015-06-28T11:24:58Z</time>
      </trkpt>
      <trkpt lat="44.84822" lon="5.19662">
        <ele>742.8</ele>
        <time>2015-06-28T11:25:10Z</time>
      </trkpt>
      <trkpt lat="44.84813" lon="5.19662">
        <ele>741.8</ele>
        <time>2015-06-28T11:25:18Z</time>
      </trkpt>
      <trkpt lat="44.84805" lon="5.1966">
        <ele>740.6</ele>
        <time>2015-06-28T11:25:25Z</time>
      </trkpt>
      <trkpt lat="44.84797" lon="5.19662">
        <ele>740.7</ele>
        <time>2015-06-28T11:25:37Z</time>
      </trkpt>
      <trkpt lat="44.84788" lon="5.19661">
        <ele>739.1</ele>
        <time>2015-06-28T11:25:42Z</time>
      </trkpt>
      <trkpt lat="44.84779" lon="5.19659">
        <ele>738.1</ele>
        <time>2015-06-28T11:25:47Z</time>
      </trkpt>
      <trkpt lat="44.84772" lon="5.19662">
        <ele>737.1</ele>
        <time>2015-06-28T11:25:52Z</time>
      </trkpt>
      <trkpt lat="44.84764" lon="5.19661">
        <ele>737.8</ele>
        <time>2015-06-28T11:25:59Z</time>
      </trkpt>
      <trkpt lat="44.84763" lon="5.19661">
        <ele>737.5</ele>
        <time>2015-06-28T11:26:00Z</time>
      </trkpt>
      <trkpt lat="44.84747" lon="5.19661">
        <ele>734.6</ele>
        <time>2015-06-28T11:26:14Z</time>
      </trkpt>
      <trkpt lat="44.84738" lon="5.19661">
        <ele>733.9</ele>
        <time>2015-06-28T11:26:24Z</time>
      </trkpt>
      <trkpt lat="44.84731" lon="5.19661">
        <ele>733.2</ele>
        <time>2015-06-28T11:26:32Z</time>
      </trkpt>
      <trkpt lat="44.84722" lon="5.1966">
        <ele>732.8</ele>
        <time>2015-06-28T11:26:38Z</time>
      </trkpt>
      <trkpt lat="44.84714" lon="5.19659">
        <ele>732.7</ele>
        <time>2015-06-28T11:26:44Z</time>
      </trkpt>
      <trkpt lat="44.84708" lon="5.1966">
        <ele>732.7</ele>
        <time>2015-06-28T11:26:47Z</time>
      </trkpt>
      <trkpt lat="44.84699" lon="5.19658">
        <ele>732.5</ele>
        <time>2015-06-28T11:26:53Z</time>
      </trkpt>
      <trkpt lat="44.84694" lon="5.19666">
        <ele>731.4</ele>
        <time>2015-06-28T11:27:00Z</time>
      </trkpt>
      <trkpt lat="44.84692" lon="5.19666">
        <ele>731.4</ele>
        <time>2015-06-28T11:27:01Z</time>
      </trkpt>
      <trkpt lat="44.84674" lon="5.19666">
        <ele>730.2</ele>
        <time>2015-06-28T11:27:15Z</time>
      </trkpt>
      <trkpt lat="44.84667" lon="5.1967">
        <ele>728.9</ele>
        <time>2015-06-28T11:27:23Z</time>
      </trkpt>
      <trkpt lat="44.84673" lon="5.19661">
        <ele>728.1</ele>
        <time>2015-06-28T11:29:44Z</time>
      </trkpt>
      <trkpt lat="44.84674" lon="5.19659">
        <ele>728.2</ele>
        <time>2015-06-28T11:29:45Z</time>
      </trkpt>
      <trkpt lat="44.84686" lon="5.19646">
        <ele>726.8</ele>
        <time>2015-06-28T11:29:57Z</time>
      </trkpt>
      <trkpt lat="44.84693" lon="5.1964">
        <ele>725.4</ele>
        <time>2015-06-28T11:30:03Z</time>
      </trkpt>
      <trkpt lat="44.847" lon="5.19635">
        <ele>725.7</ele>
        <time>2015-06-28T11:30:09Z</time>
      </trkpt>
      <trkpt lat="44.84704" lon="5.19624">
        <ele>725.2</ele>
        <time>2015-06-28T11:30:15Z</time>
      </trkpt>
      <trkpt lat="44.8471" lon="5.19617">
        <ele>724.9</ele>
        <time>2015-06-28T11:30:21Z</time>
      </trkpt>
      <trkpt lat="44.84715" lon="5.19608">
        <ele>724.9</ele>
        <time>2015-06-28T11:30:30Z</time>
      </trkpt>
      <trkpt lat="44.84719" lon="5.19601">
        <ele>723.4</ele>
        <time>2015-06-28T11:30:33Z</time>
      </trkpt>
      <trkpt lat="44.84726" lon="5.19593">
        <ele>722.6</ele>
        <time>2015-06-28T11:30:39Z</time>
      </trkpt>
      <trkpt lat="44.84731" lon="5.19586">
        <ele>721.8</ele>
        <time>2015-06-28T11:30:45Z</time>
      </trkpt>
      <trkpt lat="44.84733" lon="5.19584">
        <ele>721.7</ele>
        <time>2015-06-28T11:30:46Z</time>
      </trkpt>
      <trkpt lat="44.84747" lon="5.19577">
        <ele>721.2</ele>
        <time>2015-06-28T11:30:53Z</time>
      </trkpt>
      <trkpt lat="44.84751" lon="5.19566">
        <ele>721.7</ele>
        <time>2015-06-28T11:31:00Z</time>
      </trkpt>
      <trkpt lat="44.84756" lon="5.19556">
        <ele>720.3</ele>
        <time>2015-06-28T11:31:07Z</time>
      </trkpt>
      <trkpt lat="44.84762" lon="5.19548">
        <ele>719.1</ele>
        <time>2015-06-28T11:31:12Z</time>
      </trkpt>
      <trkpt lat="44.84769" lon="5.19542">
        <ele>718.6</ele>
        <time>2015-06-28T11:31:20Z</time>
      </trkpt>
      <trkpt lat="44.84775" lon="5.19535">
        <ele>718.1</ele>
        <time>2015-06-28T11:31:26Z</time>
      </trkpt>
      <trkpt lat="44.84781" lon="5.19526">
        <ele>717.2</ele>
        <time>2015-06-28T11:31:35Z</time>
      </trkpt>
      <trkpt lat="44.84787" lon="5.19519">
        <ele>716</ele>
        <time>2015-06-28T11:31:40Z</time>
      </trkpt>
      <trkpt lat="44.84793" lon="5.19512">
        <ele>716</ele>
        <time>2015-06-28T11:31:44Z</time>
      </trkpt>
      <trkpt lat="44.848" lon="5.19505">
        <ele>715.3</ele>
        <time>2015-06-28T11:31:51Z</time>
      </trkpt>
      <trkpt lat="44.84801" lon="5.19504">
        <ele>715.3</ele>
        <time>2015-06-28T11:31:52Z</time>
      </trkpt>
      <trkpt lat="44.84815" lon="5.19495">
        <ele>713.2</ele>
        <time>2015-06-28T11:32:03Z</time>
      </trkpt>
      <trkpt lat="44.84822" lon="5.19489">
        <ele>712.8</ele>
        <time>2015-06-28T11:32:09Z</time>
      </trkpt>
      <trkpt lat="44.84829" lon="5.19486">
        <ele>712.3</ele>
        <time>2015-06-28T11:32:18Z</time>
      </trkpt>
      <trkpt lat="44.84837" lon="5.19482">
        <ele>712.2</ele>
        <time>2015-06-28T11:32:21Z</time>
      </trkpt>
      <trkpt lat="44.84842" lon="5.19474">
        <ele>711</ele>
        <time>2015-06-28T11:32:31Z</time>
      </trkpt>
      <trkpt lat="44.8485" lon="5.1947">
        <ele>710.5</ele>
        <time>2015-06-28T11:32:38Z</time>
      </trkpt>
      <trkpt lat="44.84857" lon="5.19464">
        <ele>709.4</ele>
        <time>2015-06-28T11:32:42Z</time>
      </trkpt>
      <trkpt lat="44.84864" lon="5.19457">
        <ele>709.1</ele>
        <time>2015-06-28T11:32:49Z</time>
      </trkpt>
      <trkpt lat="44.84862" lon="5.19446">
        <ele>708.7</ele>
        <time>2015-06-28T11:33:12Z</time>
      </trkpt>
      <trkpt lat="44.84861" lon="5.19445">
        <ele>708.6</ele>
        <time>2015-06-28T11:33:13Z</time>
      </trkpt>
      <trkpt lat="44.84847" lon="5.19438">
        <ele>707.4</ele>
        <time>2015-06-28T11:33:50Z</time>
      </trkpt>
      <trkpt lat="44.84839" lon="5.19442">
        <ele>707.8</ele>
        <time>2015-06-28T11:33:59Z</time>
      </trkpt>
      <trkpt lat="44.84831" lon="5.1944">
        <ele>706.5</ele>
        <time>2015-06-28T11:34:09Z</time>
      </trkpt>
      <trkpt lat="44.84823" lon="5.19442">
        <ele>706.4</ele>
        <time>2015-06-28T11:34:17Z</time>
      </trkpt>
      <trkpt lat="44.84821" lon="5.19442">
        <ele>706.3</ele>
        <time>2015-06-28T11:34:18Z</time>
      </trkpt>
      <trkpt lat="44.84806" lon="5.1944">
        <ele>705.6</ele>
        <time>2015-06-28T11:34:33Z</time>
      </trkpt>
      <trkpt lat="44.84798" lon="5.19441">
        <ele>705</ele>
        <time>2015-06-28T11:34:39Z</time>
      </trkpt>
      <trkpt lat="44.84789" lon="5.19449">
        <ele>704</ele>
        <time>2015-06-28T11:34:58Z</time>
      </trkpt>
      <trkpt lat="44.84781" lon="5.19448">
        <ele>704.6</ele>
        <time>2015-06-28T11:35:04Z</time>
      </trkpt>
      <trkpt lat="44.84773" lon="5.19447">
        <ele>704.1</ele>
        <time>2015-06-28T11:35:08Z</time>
      </trkpt>
      <trkpt lat="44.84765" lon="5.19445">
        <ele>703.5</ele>
        <time>2015-06-28T11:35:15Z</time>
      </trkpt>
      <trkpt lat="44.84757" lon="5.19441">
        <ele>702.4</ele>
        <time>2015-06-28T11:35:33Z</time>
      </trkpt>
      <trkpt lat="44.84755" lon="5.19441">
        <ele>702.4</ele>
        <time>2015-06-28T11:35:34Z</time>
      </trkpt>
      <trkpt lat="44.84742" lon="5.19438">
        <ele>701.7</ele>
        <time>2015-06-28T11:35:50Z</time>
      </trkpt>
      <trkpt lat="44.84733" lon="5.19436">
        <ele>701.3</ele>
        <time>2015-06-28T11:35:54Z</time>
      </trkpt>
      <trkpt lat="44.84726" lon="5.1943">
        <ele>701.1</ele>
        <time>2015-06-28T11:36:01Z</time>
      </trkpt>
      <trkpt lat="44.84717" lon="5.19427">
        <ele>700.2</ele>
        <time>2015-06-28T11:36:08Z</time>
      </trkpt>
      <trkpt lat="44.84709" lon="5.19423">
        <ele>699.5</ele>
        <time>2015-06-28T11:36:15Z</time>
      </trkpt>
      <trkpt lat="44.84702" lon="5.19419">
        <ele>699.3</ele>
        <time>2015-06-28T11:36:20Z</time>
      </trkpt>
      <trkpt lat="44.84694" lon="5.19414">
        <ele>697.9</ele>
        <time>2015-06-28T11:36:26Z</time>
      </trkpt>
      <trkpt lat="44.84687" lon="5.19409">
        <ele>697.8</ele>
        <time>2015-06-28T11:36:33Z</time>
      </trkpt>
      <trkpt lat="44.84679" lon="5.19403">
        <ele>698</ele>
        <time>2015-06-28T11:36:42Z</time>
      </trkpt>
      <trkpt lat="44.84678" lon="5.19402">
        <ele>698.1</ele>
        <time>2015-06-28T11:36:43Z</time>
      </trkpt>
      <trkpt lat="44.84664" lon="5.19394">
        <ele>696.4</ele>
        <time>2015-06-28T11:36:56Z</time>
      </trkpt>
      <trkpt lat="44.84657" lon="5.19388">
        <ele>696</ele>
        <time>2015-06-28T11:37:02Z</time>
      </trkpt>
      <trkpt lat="44.84649" lon="5.19383">
        <ele>695.3</ele>
        <time>2015-06-28T11:37:10Z</time>
      </trkpt>
      <trkpt lat="44.8464" lon="5.19382">
        <ele>694.1</ele>
        <time>2015-06-28T11:37:18Z</time>
      </trkpt>
      <trkpt lat="44.84632" lon="5.19379">
        <ele>693.4</ele>
        <time>2015-06-28T11:37:35Z</time>
      </trkpt>
      <trkpt lat="44.84633" lon="5.19368">
        <ele>693.9</ele>
        <time>2015-06-28T11:37:44Z</time>
      </trkpt>
      <trkpt lat="44.84633" lon="5.19366">
        <ele>693.9</ele>
        <time>2015-06-28T11:37:45Z</time>
      </trkpt>
      <trkpt lat="44.84643" lon="5.1935">
        <ele>692.9</ele>
        <time>2015-06-28T11:38:00Z</time>
      </trkpt>
      <trkpt lat="44.84649" lon="5.19341">
        <ele>692.9</ele>
        <time>2015-06-28T11:38:09Z</time>
      </trkpt>
      <trkpt lat="44.84655" lon="5.19334">
        <ele>692.2</ele>
        <time>2015-06-28T11:38:16Z</time>
      </trkpt>
      <trkpt lat="44.84661" lon="5.19325">
        <ele>691.4</ele>
        <time>2015-06-28T11:38:23Z</time>
      </trkpt>
      <trkpt lat="44.84667" lon="5.19316">
        <ele>691.2</ele>
        <time>2015-06-28T11:38:31Z</time>
      </trkpt>
      <trkpt lat="44.84672" lon="5.19306">
        <ele>691.2</ele>
        <time>2015-06-28T11:38:39Z</time>
      </trkpt>
      <trkpt lat="44.84677" lon="5.19297">
        <ele>690.1</ele>
        <time>2015-06-28T11:38:47Z</time>
      </trkpt>
      <trkpt lat="44.84678" lon="5.19296">
        <ele>690.1</ele>
        <time>2015-06-28T11:38:48Z</time>
      </trkpt>
      <trkpt lat="44.84689" lon="5.19279">
        <ele>688.5</ele>
        <time>2015-06-28T11:39:03Z</time>
      </trkpt>
      <trkpt lat="44.84692" lon="5.19269">
        <ele>687.5</ele>
        <time>2015-06-28T11:39:09Z</time>
      </trkpt>
      <trkpt lat="44.8469" lon="5.19257">
        <ele>687.7</ele>
        <time>2015-06-28T11:39:19Z</time>
      </trkpt>
      <trkpt lat="44.84682" lon="5.19263">
        <ele>686.8</ele>
        <time>2015-06-28T11:39:30Z</time>
      </trkpt>
      <trkpt lat="44.84674" lon="5.19265">
        <ele>686.4</ele>
        <time>2015-06-28T11:39:38Z</time>
      </trkpt>
      <trkpt lat="44.84666" lon="5.19266">
        <ele>686.6</ele>
        <time>2015-06-28T11:39:44Z</time>
      </trkpt>
      <trkpt lat="44.84658" lon="5.19268">
        <ele>686.1</ele>
        <time>2015-06-28T11:39:48Z</time>
      </trkpt>
      <trkpt lat="44.84656" lon="5.19269">
        <ele>686</ele>
        <time>2015-06-28T11:39:49Z</time>
      </trkpt>
      <trkpt lat="44.84641" lon="5.19273">
        <ele>684.9</ele>
        <time>2015-06-28T11:40:05Z</time>
      </trkpt>
      <trkpt lat="44.84634" lon="5.19279">
        <ele>684.5</ele>
        <time>2015-06-28T11:40:14Z</time>
      </trkpt>
      <trkpt lat="44.84627" lon="5.19283">
        <ele>683.3</ele>
        <time>2015-06-28T11:40:22Z</time>
      </trkpt>
      <trkpt lat="44.84618" lon="5.19285">
        <ele>681.7</ele>
        <time>2015-06-28T11:40:31Z</time>
      </trkpt>
      <trkpt lat="44.8461" lon="5.19288">
        <ele>681.2</ele>
        <time>2015-06-28T11:40:38Z</time>
      </trkpt>
      <trkpt lat="44.84601" lon="5.1929">
        <ele>681.5</ele>
        <time>2015-06-28T11:40:45Z</time>
      </trkpt>
      <trkpt lat="44.84594" lon="5.19298">
        <ele>680.7</ele>
        <time>2015-06-28T11:40:52Z</time>
      </trkpt>
      <trkpt lat="44.84593" lon="5.193">
        <ele>680.6</ele>
        <time>2015-06-28T11:40:53Z</time>
      </trkpt>
      <trkpt lat="44.84583" lon="5.19301">
        <ele>679.2</ele>
        <time>2015-06-28T11:41:05Z</time>
      </trkpt>
      <trkpt lat="44.84579" lon="5.19288">
        <ele>676.9</ele>
        <time>2015-06-28T11:41:14Z</time>
      </trkpt>
      <trkpt lat="44.84576" lon="5.19267">
        <ele>678</ele>
        <time>2015-06-28T11:41:23Z</time>
      </trkpt>
      <trkpt lat="44.84566" lon="5.19255">
        <ele>676.7</ele>
        <time>2015-06-28T11:41:35Z</time>
      </trkpt>
      <trkpt lat="44.8456" lon="5.1925">
        <ele>675.7</ele>
        <time>2015-06-28T11:41:44Z</time>
      </trkpt>
      <trkpt lat="44.84547" lon="5.19256">
        <ele>673.1</ele>
        <time>2015-06-28T11:41:57Z</time>
      </trkpt>
      <trkpt lat="44.84541" lon="5.19257">
        <ele>672.5</ele>
        <time>2015-06-28T11:41:58Z</time>
      </trkpt>
      <trkpt lat="44.84538" lon="5.1926">
        <ele>669.2</ele>
        <time>2015-06-28T11:42:15Z</time>
      </trkpt>
      <trkpt lat="44.84533" lon="5.19284">
        <ele>668.3</ele>
        <time>2015-06-28T11:42:21Z</time>
      </trkpt>
      <trkpt lat="44.84529" lon="5.19296">
        <ele>667.8</ele>
        <time>2015-06-28T11:42:30Z</time>
      </trkpt>
      <trkpt lat="44.84527" lon="5.19308">
        <ele>667.1</ele>
        <time>2015-06-28T11:42:39Z</time>
      </trkpt>
      <trkpt lat="44.84525" lon="5.1932">
        <ele>666.7</ele>
        <time>2015-06-28T11:42:45Z</time>
      </trkpt>
      <trkpt lat="44.84525" lon="5.19332">
        <ele>665.8</ele>
        <time>2015-06-28T11:42:52Z</time>
      </trkpt>
      <trkpt lat="44.84525" lon="5.19342">
        <ele>664.7</ele>
        <time>2015-06-28T11:43:00Z</time>
      </trkpt>
      <trkpt lat="44.84525" lon="5.19345">
        <ele>664.4</ele>
        <time>2015-06-28T11:43:01Z</time>
      </trkpt>
      <trkpt lat="44.84532" lon="5.19362">
        <ele>663.6</ele>
        <time>2015-06-28T11:43:17Z</time>
      </trkpt>
      <trkpt lat="44.84538" lon="5.19371">
        <ele>663.3</ele>
        <time>2015-06-28T11:43:23Z</time>
      </trkpt>
      <trkpt lat="44.84549" lon="5.19378">
        <ele>663</ele>
        <time>2015-06-28T11:43:30Z</time>
      </trkpt>
      <trkpt lat="44.84555" lon="5.19389">
        <ele>661.7</ele>
        <time>2015-06-28T11:43:38Z</time>
      </trkpt>
      <trkpt lat="44.84554" lon="5.19394">
        <ele>660.2</ele>
        <time>2015-06-28T11:44:08Z</time>
      </trkpt>
      <trkpt lat="44.84555" lon="5.19393">
        <ele>660.4</ele>
        <time>2015-06-28T11:44:09Z</time>
      </trkpt>
      <trkpt lat="44.84541" lon="5.1938">
        <ele>659.2</ele>
        <time>2015-06-28T11:44:44Z</time>
      </trkpt>
      <trkpt lat="44.84533" lon="5.19375">
        <ele>658.5</ele>
        <time>2015-06-28T11:44:49Z</time>
      </trkpt>
      <trkpt lat="44.84522" lon="5.19368">
        <ele>657</ele>
        <time>2015-06-28T11:45:09Z</time>
      </trkpt>
      <trkpt lat="44.84512" lon="5.19348">
        <ele>655.6</ele>
        <time>2015-06-28T11:45:25Z</time>
      </trkpt>
      <trkpt lat="44.84512" lon="5.19337">
        <ele>654.7</ele>
        <time>2015-06-28T11:45:32Z</time>
      </trkpt>
      <trkpt lat="44.84507" lon="5.19326">
        <ele>654.6</ele>
        <time>2015-06-28T11:45:41Z</time>
      </trkpt>
      <trkpt lat="44.845" lon="5.1932">
        <ele>654.1</ele>
        <time>2015-06-28T11:45:49Z</time>
      </trkpt>
      <trkpt lat="44.84495" lon="5.19329">
        <ele>652.7</ele>
        <time>2015-06-28T11:46:04Z</time>
      </trkpt>
      <trkpt lat="44.84495" lon="5.1934">
        <ele>652.9</ele>
        <time>2015-06-28T11:46:09Z</time>
      </trkpt>
      <trkpt lat="44.84497" lon="5.19352">
        <ele>652.4</ele>
        <time>2015-06-28T11:46:17Z</time>
      </trkpt>
      <trkpt lat="44.84497" lon="5.19353">
        <ele>652.2</ele>
        <time>2015-06-28T11:46:18Z</time>
      </trkpt>
      <trkpt lat="44.84501" lon="5.19374">
        <ele>650.7</ele>
        <time>2015-06-28T11:46:31Z</time>
      </trkpt>
      <trkpt lat="44.84516" lon="5.19385">
        <ele>650.2</ele>
        <time>2015-06-28T11:46:39Z</time>
      </trkpt>
      <trkpt lat="44.84509" lon="5.19396">
        <ele>649</ele>
        <time>2015-06-28T11:46:46Z</time>
      </trkpt>
      <trkpt lat="44.84496" lon="5.19388">
        <ele>645.7</ele>
        <time>2015-06-28T11:47:24Z</time>
      </trkpt>
      <trkpt lat="44.84485" lon="5.19376">
        <ele>643.7</ele>
        <time>2015-06-28T11:47:45Z</time>
      </trkpt>
      <trkpt lat="44.84465" lon="5.19363">
        <ele>640.6</ele>
        <time>2015-06-28T11:48:31Z</time>
      </trkpt>
      <trkpt lat="44.84435" lon="5.19345">
        <ele>622.5</ele>
        <time>2015-06-28T11:51:44Z</time>
      </trkpt>
      <trkpt lat="44.84418" lon="5.19337">
        <ele>618</ele>
        <time>2015-06-28T11:58:02Z</time>
      </trkpt>
      <trkpt lat="44.844" lon="5.19325">
        <ele>619.8</ele>
        <time>2015-06-28T11:58:24Z</time>
      </trkpt>
      <trkpt lat="44.84391" lon="5.19314">
        <ele>618.6</ele>
        <time>2015-06-28T11:58:55Z</time>
      </trkpt>
      <trkpt lat="44.84376" lon="5.19304">
        <ele>617.8</ele>
        <time>2015-06-28T11:59:22Z</time>
      </trkpt>
      <trkpt lat="44.84359" lon="5.19299">
        <ele>617</ele>
        <time>2015-06-28T11:59:38Z</time>
      </trkpt>
      <trkpt lat="44.8435" lon="5.19276">
        <ele>616.3</ele>
        <time>2015-06-28T11:59:59Z</time>
      </trkpt>
      <trkpt lat="44.84338" lon="5.19261">
        <ele>614.4</ele>
        <time>2015-06-28T12:00:18Z</time>
      </trkpt>
      <trkpt lat="44.84333" lon="5.19248">
        <ele>612.3</ele>
        <time>2015-06-28T12:00:48Z</time>
      </trkpt>
      <trkpt lat="44.84327" lon="5.1923">
        <ele>610.6</ele>
        <time>2015-06-28T12:01:02Z</time>
      </trkpt>
      <trkpt lat="44.84324" lon="5.19215">
        <ele>610</ele>
        <time>2015-06-28T12:01:29Z</time>
      </trkpt>
      <trkpt lat="44.84316" lon="5.19203">
        <ele>609.8</ele>
        <time>2015-06-28T12:01:43Z</time>
      </trkpt>
      <trkpt lat="44.84308" lon="5.19191">
        <ele>609.8</ele>
        <time>2015-06-28T12:01:53Z</time>
      </trkpt>
      <trkpt lat="44.84299" lon="5.19181">
        <ele>609.8</ele>
        <time>2015-06-28T12:02:09Z</time>
      </trkpt>
      <trkpt lat="44.84283" lon="5.19172">
        <ele>609.2</ele>
        <time>2015-06-28T12:02:29Z</time>
      </trkpt>
      <trkpt lat="44.84276" lon="5.19158">
        <ele>609.4</ele>
        <time>2015-06-28T12:02:51Z</time>
      </trkpt>
      <trkpt lat="44.8426" lon="5.19139">
        <ele>609.3</ele>
        <time>2015-06-28T12:03:22Z</time>
      </trkpt>
      <trkpt lat="44.84247" lon="5.1912">
        <ele>609.1</ele>
        <time>2015-06-28T12:03:39Z</time>
      </trkpt>
      <trkpt lat="44.84235" lon="5.19102">
        <ele>608.9</ele>
        <time>2015-06-28T12:03:42Z</time>
      </trkpt>
      <trkpt lat="44.84227" lon="5.19082">
        <ele>609.1</ele>
        <time>2015-06-28T12:03:44Z</time>
      </trkpt>
      <trkpt lat="44.84226" lon="5.19065">
        <ele>609.5</ele>
        <time>2015-06-28T12:03:47Z</time>
      </trkpt>
      <trkpt lat="44.84228" lon="5.1905">
        <ele>609.6</ele>
        <time>2015-06-28T12:03:49Z</time>
      </trkpt>
      <trkpt lat="44.84228" lon="5.19039">
        <ele>609.1</ele>
        <time>2015-06-28T12:03:59Z</time>
      </trkpt>
      <trkpt lat="44.84226" lon="5.19021">
        <ele>608.9</ele>
        <time>2015-06-28T12:04:03Z</time>
      </trkpt>
      <trkpt lat="44.84228" lon="5.19018">
        <ele>608.8</ele>
        <time>2015-06-28T12:04:04Z</time>
      </trkpt>
      <trkpt lat="44.84231" lon="5.19011">
        <ele>609.3</ele>
        <time>2015-06-28T12:05:40Z</time>
      </trkpt>
      <trkpt lat="44.84231" lon="5.19002">
        <ele>609.7</ele>
        <time>2015-06-28T12:06:25Z</time>
      </trkpt>
      <trkpt lat="44.8423" lon="5.1899">
        <ele>609.4</ele>
        <time>2015-06-28T12:07:07Z</time>
      </trkpt>
      <trkpt lat="44.8423" lon="5.18976">
        <ele>609.8</ele>
        <time>2015-06-28T12:07:13Z</time>
      </trkpt>
      <trkpt lat="44.8423" lon="5.18955">
        <ele>610.5</ele>
        <time>2015-06-28T12:07:27Z</time>
      </trkpt>
      <trkpt lat="44.8423" lon="5.18947">
        <ele>610.6</ele>
        <time>2015-06-28T12:07:28Z</time>
      </trkpt>
      <trkpt lat="44.84228" lon="5.18935">
        <ele>610.7</ele>
        <time>2015-06-28T12:07:40Z</time>
      </trkpt>
      <trkpt lat="44.84222" lon="5.18915">
        <ele>610.7</ele>
        <time>2015-06-28T12:07:45Z</time>
      </trkpt>
      <trkpt lat="44.8421" lon="5.18902">
        <ele>610.6</ele>
        <time>2015-06-28T12:07:50Z</time>
      </trkpt>
      <trkpt lat="44.842" lon="5.18893">
        <ele>610.9</ele>
        <time>2015-06-28T12:07:59Z</time>
      </trkpt>
      <trkpt lat="44.84188" lon="5.18889">
        <ele>610.6</ele>
        <time>2015-06-28T12:08:31Z</time>
      </trkpt>
      <trkpt lat="44.84179" lon="5.18883">
        <ele>609.6</ele>
        <time>2015-06-28T12:09:14Z</time>
      </trkpt>
      <trkpt lat="44.84159" lon="5.18891">
        <ele>609</ele>
        <time>2015-06-28T12:09:22Z</time>
      </trkpt>
      <trkpt lat="44.84148" lon="5.18897">
        <ele>609</ele>
        <time>2015-06-28T12:09:28Z</time>
      </trkpt>
      <trkpt lat="44.84127" lon="5.18911">
        <ele>609</ele>
        <time>2015-06-28T12:09:37Z</time>
      </trkpt>
      <trkpt lat="44.84118" lon="5.18918">
        <ele>606</ele>
        <time>2015-06-28T12:12:54Z</time>
      </trkpt>
      <trkpt lat="44.84107" lon="5.18923">
        <ele>607</ele>
        <time>2015-06-28T12:13:08Z</time>
      </trkpt>
      <trkpt lat="44.8409" lon="5.18932">
        <ele>607.5</ele>
        <time>2015-06-28T12:13:22Z</time>
      </trkpt>
      <trkpt lat="44.84096" lon="5.18933">
        <ele>607.4</ele>
        <time>2015-06-28T12:13:23Z</time>
      </trkpt>
      <trkpt lat="44.84077" lon="5.18938">
        <ele>606</ele>
        <time>2015-06-28T12:13:42Z</time>
      </trkpt>
      <trkpt lat="44.84063" lon="5.18944">
        <ele>606</ele>
        <time>2015-06-28T12:14:02Z</time>
      </trkpt>
      <trkpt lat="44.84052" lon="5.1895">
        <ele>606.2</ele>
        <time>2015-06-28T12:14:14Z</time>
      </trkpt>
      <trkpt lat="44.84037" lon="5.18952">
        <ele>605.4</ele>
        <time>2015-06-28T12:14:23Z</time>
      </trkpt>
      <trkpt lat="44.84023" lon="5.18949">
        <ele>605.7</ele>
        <time>2015-06-28T12:14:24Z</time>
      </trkpt>
      <trkpt lat="44.84009" lon="5.18947">
        <ele>605</ele>
        <time>2015-06-28T12:14:33Z</time>
      </trkpt>
      <trkpt lat="44.83992" lon="5.1893">
        <ele>605.5</ele>
        <time>2015-06-28T12:14:36Z</time>
      </trkpt>
      <trkpt lat="44.83974" lon="5.18915">
        <ele>605.4</ele>
        <time>2015-06-28T12:14:43Z</time>
      </trkpt>
      <trkpt lat="44.83953" lon="5.189">
        <ele>605.9</ele>
        <time>2015-06-28T12:15:03Z</time>
      </trkpt>
      <trkpt lat="44.83929" lon="5.18895">
        <ele>605.6</ele>
        <time>2015-06-28T12:15:07Z</time>
      </trkpt>
      <trkpt lat="44.83911" lon="5.18896">
        <ele>605.8</ele>
        <time>2015-06-28T12:15:10Z</time>
      </trkpt>
      <trkpt lat="44.83896" lon="5.189">
        <ele>600.4</ele>
        <time>2015-06-28T12:16:23Z</time>
      </trkpt>
      <trkpt lat="44.83876" lon="5.189">
        <ele>600.2</ele>
        <time>2015-06-28T12:16:26Z</time>
      </trkpt>
      <trkpt lat="44.83866" lon="5.18888">
        <ele>599.9</ele>
        <time>2015-06-28T12:16:28Z</time>
      </trkpt>
      <trkpt lat="44.83853" lon="5.18865">
        <ele>599.8</ele>
        <time>2015-06-28T12:16:29Z</time>
      </trkpt>
      <trkpt lat="44.83846" lon="5.18848">
        <ele>599.6</ele>
        <time>2015-06-28T12:16:30Z</time>
      </trkpt>
      <trkpt lat="44.83839" lon="5.18828">
        <ele>594.7</ele>
        <time>2015-06-28T12:18:18Z</time>
      </trkpt>
      <trkpt lat="44.83834" lon="5.18804">
        <ele>594.2</ele>
        <time>2015-06-28T12:18:19Z</time>
      </trkpt>
      <trkpt lat="44.8383" lon="5.18773">
        <ele>594.4</ele>
        <time>2015-06-28T12:18:21Z</time>
      </trkpt>
    </trkseg>
  </trk>
</gpx>